C2702 KPIE-TXKF
Flight info
| Callsign | C2702 |
|---|---|
| Flight time | 3h 59m |
| Altitude | 5000 |
| Route | KPIE BAYPO2 CAMJO DCT TAALR V198 LIBBY DCT KOOKK AR5 BAHAA Y493 AYCHB Y494 HARON Y436 JAINS M326 LITTL DCT TRYEB DCT TXKF |
| Aircraft | CN35/M-G/C |
Departure
| Time | 2026-05-07 21:46 |
|---|---|
| Airport | St. Petersburg Clearwater International Airport (KPIE) |
Arrival
| Time | 2026-05-08 01:46 |
|---|---|
| Airport | L.F. Wade International Airport (TXKF) |
| Time | Latitude | Longitude | Altitude | Speed | Heading |
|---|---|---|---|---|---|
| 2026-05-07 21:22 | 27.91508 | -82.69186 | 22 ft | 0 kts | 256° |
| 2026-05-07 21:37 | 27.91510 | -82.69179 | 22 ft | 2 kts | 303° |
| 2026-05-07 21:37 | 27.91528 | -82.69212 | 24 ft | 5 kts | 289° |
| 2026-05-07 21:37 | 27.91508 | -82.69231 | 23 ft | 4 kts | 166° |
| 2026-05-07 21:38 | 27.91469 | -82.69200 | 22 ft | 10 kts | 140° |
| 2026-05-07 21:38 | 27.91439 | -82.69126 | 22 ft | 13 kts | 95° |
| 2026-05-07 21:38 | 27.91398 | -82.69065 | 22 ft | 11 kts | 171° |
| 2026-05-07 21:38 | 27.91304 | -82.69048 | 23 ft | 16 kts | 169° |
| 2026-05-07 21:39 | 27.91173 | -82.69026 | 22 ft | 21 kts | 171° |
| 2026-05-07 21:39 | 27.91015 | -82.69000 | 24 ft | 20 kts | 172° |
| 2026-05-07 21:39 | 27.90859 | -82.68975 | 22 ft | 24 kts | 171° |
| 2026-05-07 21:39 | 27.90724 | -82.68947 | 22 ft | 22 kts | 170° |
| 2026-05-07 21:40 | 27.90622 | -82.68927 | 24 ft | 12 kts | 172° |
| 2026-05-07 21:40 | 27.90521 | -82.68912 | 22 ft | 17 kts | 173° |
| 2026-05-07 21:40 | 27.90384 | -82.68890 | 22 ft | 22 kts | 172° |
| 2026-05-07 21:40 | 27.90245 | -82.68868 | 23 ft | 22 kts | 171° |
| 2026-05-07 21:41 | 27.90073 | -82.68863 | 19 ft | 28 kts | 182° |
| 2026-05-07 21:41 | 27.89882 | -82.68861 | 21 ft | 14 kts | 169° |
| 2026-05-07 21:41 | 27.89768 | -82.68838 | 22 ft | 19 kts | 170° |
| 2026-05-07 21:41 | 27.89697 | -82.68805 | 22 ft | 12 kts | 121° |
| 2026-05-07 21:42 | 27.89697 | -82.68737 | 21 ft | 9 kts | 82° |
| 2026-05-07 21:42 | 27.89699 | -82.68722 | 20 ft | 0 kts | 82° |
| 2026-05-07 21:43 | 27.89704 | -82.68680 | 19 ft | 10 kts | 82° |
| 2026-05-07 21:44 | 27.89716 | -82.68629 | 17 ft | 6 kts | 47° |
| 2026-05-07 21:44 | 27.89750 | -82.68620 | 17 ft | 1 kts | 348° |
| 2026-05-07 21:44 | 27.89870 | -82.68644 | 18 ft | 45 kts | 351° |
| 2026-05-07 21:44 | 27.90349 | -82.68738 | 23 ft | 92 kts | 349° |
| 2026-05-07 21:45 | 27.91086 | -82.68934 | 22 ft | 124 kts | 341° |
| 2026-05-07 21:45 | 27.91974 | -82.69229 | 118 ft | 138 kts | 340° |
| 2026-05-07 21:45 | 27.92982 | -82.69335 | 162 ft | 155 kts | 351° |
| 2026-05-07 21:45 | 27.94062 | -82.69367 | 295 ft | 158 kts | 356° |
| 2026-05-07 21:46 | 27.95215 | -82.69286 | 329 ft | 167 kts | 9° |
| 2026-05-07 21:46 | 27.96369 | -82.68850 | 503 ft | 173 kts | 20° |
| 2026-05-07 21:46 | 27.97384 | -82.68313 | 1015 ft | 162 kts | 20° |
| 2026-05-07 21:46 | 27.98504 | -82.67759 | 1131 ft | 185 kts | 20° |
| 2026-05-07 21:47 | 27.99754 | -82.67296 | 1405 ft | 198 kts | 13° |
| 2026-05-07 21:47 | 28.01191 | -82.67106 | 1616 ft | 208 kts | 356° |
| 2026-05-07 21:47 | 28.02570 | -82.67217 | 2234 ft | 196 kts | 352° |
| 2026-05-07 21:47 | 28.03925 | -82.67397 | 2714 ft | 197 kts | 351° |
| 2026-05-07 21:48 | 28.05312 | -82.67575 | 3088 ft | 204 kts | 352° |
| 2026-05-07 21:48 | 28.06726 | -82.67746 | 3519 ft | 204 kts | 354° |
| 2026-05-07 21:48 | 28.08144 | -82.67824 | 3983 ft | 204 kts | 360° |
| 2026-05-07 21:48 | 28.09485 | -82.67443 | 4433 ft | 202 kts | 37° |
| 2026-05-07 21:49 | 28.10558 | -82.66391 | 4801 ft | 206 kts | 41° |
| 2026-05-07 21:49 | 28.11623 | -82.65279 | 5149 ft | 210 kts | 43° |
| 2026-05-07 21:49 | 28.12682 | -82.64108 | 5486 ft | 215 kts | 45° |
| 2026-05-07 21:49 | 28.13734 | -82.62892 | 5854 ft | 217 kts | 45° |
| 2026-05-07 21:50 | 28.14835 | -82.61611 | 5731 ft | 241 kts | 46° |
| 2026-05-07 21:50 | 28.16058 | -82.60226 | 5752 ft | 251 kts | 42° |
| 2026-05-07 21:50 | 28.17391 | -82.58972 | 6027 ft | 250 kts | 37° |
| 2026-05-07 21:50 | 28.18789 | -82.57750 | 6109 ft | 258 kts | 36° |
| 2026-05-07 21:51 | 28.20289 | -82.56620 | 6222 ft | 260 kts | 24° |
| 2026-05-07 21:51 | 28.22020 | -82.56013 | 6329 ft | 262 kts | 9° |
| 2026-05-07 21:51 | 28.23849 | -82.55882 | 6309 ft | 267 kts | 355° |
| 2026-05-07 21:51 | 28.25694 | -82.56096 | 6474 ft | 265 kts | 351° |
| 2026-05-07 21:52 | 28.27520 | -82.56353 | 6534 ft | 267 kts | 352° |
| 2026-05-07 21:52 | 28.29396 | -82.56612 | 6401 ft | 276 kts | 352° |
| 2026-05-07 21:52 | 28.31314 | -82.56907 | 6402 ft | 277 kts | 350° |
| 2026-05-07 21:52 | 28.33198 | -82.57233 | 6572 ft | 272 kts | 349° |
| 2026-05-07 21:53 | 28.35069 | -82.57588 | 6560 ft | 275 kts | 349° |
| 2026-05-07 21:53 | 28.36977 | -82.57871 | 6569 ft | 276 kts | 353° |
| 2026-05-07 21:53 | 28.38889 | -82.57974 | 6675 ft | 274 kts | 358° |
| 2026-05-07 21:53 | 28.40800 | -82.58002 | 6677 ft | 277 kts | 358° |
| 2026-05-07 21:54 | 28.42741 | -82.58021 | 6630 ft | 280 kts | 358° |
| 2026-05-07 21:54 | 28.44681 | -82.58052 | 6715 ft | 277 kts | 358° |
| 2026-05-07 21:54 | 28.46601 | -82.58091 | 6705 ft | 278 kts | 357° |
| 2026-05-07 21:54 | 28.48554 | -82.58131 | 6596 ft | 282 kts | 357° |
| 2026-05-07 21:55 | 28.50521 | -82.58179 | 6600 ft | 281 kts | 357° |
| 2026-05-07 21:55 | 28.52467 | -82.58235 | 6669 ft | 279 kts | 356° |
| 2026-05-07 21:55 | 28.54405 | -82.58311 | 6674 ft | 279 kts | 356° |
| 2026-05-07 21:55 | 28.56353 | -82.58400 | 6626 ft | 281 kts | 356° |
| 2026-05-07 21:56 | 28.58301 | -82.58506 | 6664 ft | 280 kts | 355° |
| 2026-05-07 21:56 | 28.60243 | -82.58625 | 6678 ft | 279 kts | 354° |
| 2026-05-07 21:56 | 28.62199 | -82.58750 | 6620 ft | 282 kts | 355° |
| 2026-05-07 21:56 | 28.64154 | -82.58893 | 6631 ft | 281 kts | 354° |
| 2026-05-07 21:57 | 28.66097 | -82.59042 | 6686 ft | 279 kts | 354° |
| 2026-05-07 21:57 | 28.68012 | -82.59200 | 6653 ft | 281 kts | 354° |
| 2026-05-07 21:57 | 28.69992 | -82.59379 | 6615 ft | 282 kts | 354° |
| 2026-05-07 21:57 | 28.71915 | -82.59561 | 6664 ft | 280 kts | 353° |
| 2026-05-07 21:58 | 28.73847 | -82.59757 | 6694 ft | 279 kts | 353° |
| 2026-05-07 21:58 | 28.75788 | -82.59961 | 6659 ft | 281 kts | 353° |
| 2026-05-07 21:58 | 28.77739 | -82.60182 | 6637 ft | 282 kts | 353° |
| 2026-05-07 21:58 | 28.79690 | -82.60419 | 6646 ft | 282 kts | 352° |
| 2026-05-07 21:59 | 28.81637 | -82.60670 | 6644 ft | 282 kts | 352° |
| 2026-05-07 21:59 | 28.83587 | -82.60945 | 6672 ft | 282 kts | 351° |
| 2026-05-07 21:59 | 28.85532 | -82.61232 | 6666 ft | 282 kts | 351° |
| 2026-05-07 21:59 | 28.87476 | -82.61524 | 6699 ft | 281 kts | 351° |
| 2026-05-07 22:00 | 28.89414 | -82.61811 | 6740 ft | 280 kts | 351° |
| 2026-05-07 22:00 | 28.91350 | -82.62093 | 6745 ft | 281 kts | 351° |
| 2026-05-07 22:00 | 28.93288 | -82.62388 | 6752 ft | 281 kts | 351° |
| 2026-05-07 22:00 | 28.95230 | -82.62685 | 6745 ft | 282 kts | 351° |
| 2026-05-07 22:01 | 28.97176 | -82.62979 | 6742 ft | 282 kts | 351° |
| 2026-05-07 22:01 | 28.99118 | -82.63279 | 6744 ft | 282 kts | 351° |
| 2026-05-07 22:01 | 29.01067 | -82.63563 | 6737 ft | 283 kts | 352° |
| 2026-05-07 22:01 | 29.03027 | -82.63812 | 6738 ft | 282 kts | 352° |
| 2026-05-07 22:02 | 29.04979 | -82.64069 | 6739 ft | 283 kts | 352° |
| 2026-05-07 22:02 | 29.06951 | -82.64328 | 6542 ft | 291 kts | 352° |
| 2026-05-07 22:02 | 29.08972 | -82.64594 | 6377 ft | 294 kts | 352° |
| 2026-05-07 22:02 | 29.11033 | -82.64909 | 6063 ft | 300 kts | 350° |
| 2026-05-07 22:03 | 29.13075 | -82.65287 | 5811 ft | 302 kts | 349° |
| 2026-05-07 22:03 | 29.15161 | -82.65683 | 5548 ft | 305 kts | 350° |
| 2026-05-07 22:03 | 29.17259 | -82.66008 | 5316 ft | 306 kts | 352° |
| 2026-05-07 22:03 | 29.19385 | -82.66247 | 5081 ft | 306 kts | 354° |
| 2026-05-07 22:04 | 29.21494 | -82.66455 | 4964 ft | 304 kts | 354° |
| 2026-05-07 22:04 | 29.23567 | -82.66710 | 4984 ft | 297 kts | 352° |
| 2026-05-07 22:04 | 29.25609 | -82.67005 | 4986 ft | 294 kts | 352° |
| 2026-05-07 22:04 | 29.27660 | -82.67310 | 4982 ft | 292 kts | 352° |
| 2026-05-07 22:05 | 29.29647 | -82.67609 | 4980 ft | 291 kts | 352° |
| 2026-05-07 22:05 | 29.31649 | -82.67916 | 4985 ft | 290 kts | 352° |
| 2026-05-07 22:05 | 29.33649 | -82.68220 | 4984 ft | 290 kts | 352° |
| 2026-05-07 22:05 | 29.35660 | -82.68398 | 4989 ft | 290 kts | 358° |
| 2026-05-07 22:06 | 29.37678 | -82.68401 | 4992 ft | 290 kts | 360° |
| 2026-05-07 22:06 | 29.39693 | -82.68379 | 4990 ft | 289 kts | 359° |
| 2026-05-07 22:06 | 29.41707 | -82.68387 | 4989 ft | 289 kts | 359° |
| 2026-05-07 22:06 | 29.43717 | -82.68405 | 4989 ft | 288 kts | 359° |
| 2026-05-07 22:07 | 29.45719 | -82.68418 | 4987 ft | 288 kts | 359° |
| 2026-05-07 22:07 | 29.47724 | -82.68433 | 4986 ft | 287 kts | 358° |
| 2026-05-07 22:07 | 29.49726 | -82.68476 | 4989 ft | 288 kts | 358° |
| 2026-05-07 22:07 | 29.51728 | -82.68534 | 4981 ft | 288 kts | 358° |
| 2026-05-07 22:08 | 29.53736 | -82.68593 | 4983 ft | 289 kts | 358° |
| 2026-05-07 22:08 | 29.55745 | -82.68654 | 4983 ft | 289 kts | 358° |
| 2026-05-07 22:08 | 29.57750 | -82.68720 | 4982 ft | 289 kts | 358° |
| 2026-05-07 22:08 | 29.59761 | -82.68785 | 4980 ft | 288 kts | 358° |
| 2026-05-07 22:09 | 29.61768 | -82.68846 | 4983 ft | 288 kts | 358° |
| 2026-05-07 22:09 | 29.63771 | -82.68905 | 4987 ft | 288 kts | 358° |
| 2026-05-07 22:09 | 29.65776 | -82.68955 | 4987 ft | 289 kts | 358° |
| 2026-05-07 22:09 | 29.67789 | -82.68976 | 4986 ft | 289 kts | 359° |
| 2026-05-07 22:10 | 29.69793 | -82.68988 | 4986 ft | 288 kts | 359° |
| 2026-05-07 22:10 | 29.71801 | -82.68998 | 4983 ft | 288 kts | 359° |
| 2026-05-07 22:10 | 29.73802 | -82.69009 | 4984 ft | 288 kts | 359° |
| 2026-05-07 22:10 | 29.75803 | -82.69018 | 4982 ft | 288 kts | 359° |
| 2026-05-07 22:11 | 29.77811 | -82.69028 | 4983 ft | 288 kts | 359° |
| 2026-05-07 22:11 | 29.79815 | -82.69040 | 4984 ft | 288 kts | 359° |
| 2026-05-07 22:11 | 29.81819 | -82.69055 | 4981 ft | 288 kts | 359° |
| 2026-05-07 22:11 | 29.83827 | -82.69073 | 4982 ft | 289 kts | 359° |
| 2026-05-07 22:12 | 29.85838 | -82.69093 | 4986 ft | 289 kts | 359° |
| 2026-05-07 22:12 | 29.87851 | -82.69115 | 4984 ft | 289 kts | 359° |
| 2026-05-07 22:12 | 29.89861 | -82.69137 | 4989 ft | 289 kts | 359° |
| 2026-05-07 22:12 | 29.91872 | -82.69158 | 4988 ft | 289 kts | 358° |
| 2026-05-07 22:13 | 29.93882 | -82.69167 | 4987 ft | 289 kts | 359° |
| 2026-05-07 22:13 | 29.95894 | -82.69166 | 4991 ft | 289 kts | 359° |
| 2026-05-07 22:13 | 29.97904 | -82.69156 | 4990 ft | 289 kts | 359° |
| 2026-05-07 22:13 | 29.99914 | -82.69095 | 4994 ft | 289 kts | 0° |
| 2026-05-07 22:14 | 30.01928 | -82.69014 | 4992 ft | 290 kts | 1° |
| 2026-05-07 22:14 | 30.03261 | -82.68962 | 4994 ft | 290 kts | 1° |
| 2026-05-07 22:14 | 30.05277 | -82.68886 | 4994 ft | 290 kts | 1° |
| 2026-05-07 22:14 | 30.07293 | -82.68813 | 4991 ft | 290 kts | 0° |
| 2026-05-07 22:15 | 30.09312 | -82.68765 | 4997 ft | 290 kts | 360° |
| 2026-05-07 22:15 | 30.11338 | -82.68726 | 4993 ft | 290 kts | 360° |
| 2026-05-07 22:15 | 30.13342 | -82.68691 | 4995 ft | 290 kts | 360° |
| 2026-05-07 22:15 | 30.15357 | -82.68656 | 4995 ft | 290 kts | 360° |
| 2026-05-07 22:16 | 30.17374 | -82.68620 | 4996 ft | 290 kts | 360° |
| 2026-05-07 22:16 | 30.19388 | -82.68585 | 4997 ft | 290 kts | 360° |
| 2026-05-07 22:16 | 30.21402 | -82.68515 | 5004 ft | 290 kts | 3° |
| 2026-05-07 22:16 | 30.23398 | -82.68174 | 5002 ft | 290 kts | 9° |
| 2026-05-07 22:17 | 30.25375 | -82.67697 | 5023 ft | 290 kts | 12° |
| 2026-05-07 22:17 | 30.27323 | -82.67080 | 5018 ft | 291 kts | 17° |
| 2026-05-07 22:17 | 30.29206 | -82.66208 | 5017 ft | 291 kts | 24° |
| 2026-05-07 22:17 | 30.31005 | -82.65134 | 5029 ft | 292 kts | 31° |
| 2026-05-07 22:18 | 30.32620 | -82.63715 | 5031 ft | 292 kts | 41° |
| 2026-05-07 22:18 | 30.35361 | -82.60274 | 5036 ft | 291 kts | 53° |
| 2026-05-07 22:18 | 30.36499 | -82.58333 | 5035 ft | 291 kts | 59° |
| 2026-05-07 22:19 | 30.37545 | -82.56330 | 5037 ft | 291 kts | 61° |
| 2026-05-07 22:19 | 30.38519 | -82.54279 | 5056 ft | 290 kts | 63° |
| 2026-05-07 22:19 | 30.39415 | -82.52182 | 5054 ft | 290 kts | 67° |
| 2026-05-07 22:19 | 30.40217 | -82.50040 | 5053 ft | 290 kts | 69° |
| 2026-05-07 22:20 | 30.40908 | -82.47853 | 5061 ft | 289 kts | 73° |
| 2026-05-07 22:20 | 30.41530 | -82.45641 | 5062 ft | 289 kts | 75° |
| 2026-05-07 22:20 | 30.42054 | -82.43393 | 5061 ft | 289 kts | 78° |
| 2026-05-07 22:20 | 30.42521 | -82.41130 | 5063 ft | 289 kts | 79° |
| 2026-05-07 22:21 | 30.42906 | -82.38845 | 5013 ft | 289 kts | 82° |
| 2026-05-07 22:21 | 30.43202 | -82.36547 | 5014 ft | 287 kts | 83° |
| 2026-05-07 22:21 | 30.43416 | -82.34263 | 5012 ft | 285 kts | 87° |
| 2026-05-07 22:21 | 30.43547 | -82.31973 | 5011 ft | 283 kts | 88° |
| 2026-05-07 22:22 | 30.43658 | -82.29696 | 5010 ft | 283 kts | 88° |
| 2026-05-07 22:22 | 30.43771 | -82.27418 | 5011 ft | 283 kts | 88° |
| 2026-05-07 22:22 | 30.43887 | -82.25147 | 5005 ft | 282 kts | 88° |
| 2026-05-07 22:22 | 30.44000 | -82.22875 | 4995 ft | 282 kts | 88° |
| 2026-05-07 22:23 | 30.44113 | -82.20606 | 4993 ft | 282 kts | 88° |
| 2026-05-07 22:23 | 30.44223 | -82.18343 | 4979 ft | 282 kts | 88° |
| 2026-05-07 22:23 | 30.44333 | -82.16075 | 4978 ft | 282 kts | 88° |
| 2026-05-07 22:23 | 30.44444 | -82.13810 | 4973 ft | 282 kts | 88° |
| 2026-05-07 22:24 | 30.44556 | -82.11543 | 4960 ft | 282 kts | 88° |
| 2026-05-07 22:24 | 30.44670 | -82.09274 | 4969 ft | 282 kts | 88° |
| 2026-05-07 22:24 | 30.44783 | -82.07011 | 4967 ft | 282 kts | 88° |
| 2026-05-07 22:24 | 30.44896 | -82.04746 | 4972 ft | 281 kts | 88° |
| 2026-05-07 22:25 | 30.45016 | -82.02482 | 4967 ft | 282 kts | 88° |
| 2026-05-07 22:25 | 30.45135 | -82.00216 | 4964 ft | 282 kts | 88° |
| 2026-05-07 22:25 | 30.45254 | -81.97947 | 4959 ft | 282 kts | 88° |
| 2026-05-07 22:25 | 30.45373 | -81.95676 | 4954 ft | 282 kts | 88° |
| 2026-05-07 22:26 | 30.45470 | -81.93410 | 4950 ft | 281 kts | 90° |
| 2026-05-07 22:26 | 30.45501 | -81.91149 | 4943 ft | 281 kts | 91° |
| 2026-05-07 22:26 | 30.45522 | -81.88881 | 4942 ft | 281 kts | 91° |
| 2026-05-07 22:26 | 30.45546 | -81.86614 | 4942 ft | 281 kts | 91° |
| 2026-05-07 22:27 | 30.45568 | -81.84348 | 4941 ft | 281 kts | 91° |
| 2026-05-07 22:27 | 30.45588 | -81.82078 | 4945 ft | 281 kts | 91° |
| 2026-05-07 22:27 | 30.45608 | -81.79812 | 4919 ft | 281 kts | 91° |
| 2026-05-07 22:27 | 30.45631 | -81.77546 | 4918 ft | 282 kts | 91° |
| 2026-05-07 22:28 | 30.45654 | -81.75277 | 4918 ft | 282 kts | 91° |
| 2026-05-07 22:28 | 30.45677 | -81.73004 | 4917 ft | 282 kts | 91° |
| 2026-05-07 22:28 | 30.45701 | -81.70755 | 4919 ft | 282 kts | 91° |
| 2026-05-07 22:28 | 30.45724 | -81.68486 | 4919 ft | 282 kts | 91° |
| 2026-05-07 22:29 | 30.45746 | -81.66216 | 4917 ft | 282 kts | 91° |
| 2026-05-07 22:29 | 30.45768 | -81.63937 | 4916 ft | 284 kts | 90° |
| 2026-05-07 22:29 | 30.45774 | -81.61640 | 4916 ft | 286 kts | 91° |
| 2026-05-07 22:29 | 30.45776 | -81.59325 | 4919 ft | 288 kts | 91° |
| 2026-05-07 22:30 | 30.45778 | -81.56997 | 4916 ft | 290 kts | 91° |
| 2026-05-07 22:30 | 30.45781 | -81.54668 | 4983 ft | 288 kts | 91° |
| 2026-05-07 22:30 | 30.45779 | -81.52342 | 4992 ft | 289 kts | 91° |
| 2026-05-07 22:30 | 30.45776 | -81.50007 | 4993 ft | 290 kts | 91° |
| 2026-05-07 22:31 | 30.45781 | -81.47670 | 4998 ft | 291 kts | 91° |
| 2026-05-07 22:31 | 30.45788 | -81.45322 | 4998 ft | 291 kts | 91° |
| 2026-05-07 22:31 | 30.45796 | -81.42975 | 5000 ft | 291 kts | 91° |
| 2026-05-07 22:31 | 30.45804 | -81.40627 | 4999 ft | 291 kts | 91° |
| 2026-05-07 22:32 | 30.45813 | -81.38278 | 4998 ft | 291 kts | 91° |
| 2026-05-07 22:32 | 30.45821 | -81.35929 | 4998 ft | 291 kts | 91° |
| 2026-05-07 22:32 | 30.45828 | -81.33584 | 4998 ft | 291 kts | 91° |
| 2026-05-07 22:32 | 30.45838 | -81.31236 | 4996 ft | 291 kts | 91° |
| 2026-05-07 22:33 | 30.45847 | -81.28894 | 4992 ft | 291 kts | 91° |
| 2026-05-07 22:33 | 30.45831 | -81.26544 | 4990 ft | 292 kts | 92° |
| 2026-05-07 22:33 | 30.45774 | -81.24184 | 4988 ft | 293 kts | 93° |
| 2026-05-07 22:33 | 30.45710 | -81.21822 | 4988 ft | 293 kts | 92° |
| 2026-05-07 22:34 | 30.45649 | -81.19460 | 4987 ft | 294 kts | 93° |
| 2026-05-07 22:34 | 30.45590 | -81.17090 | 4991 ft | 295 kts | 92° |
| 2026-05-07 22:34 | 30.45530 | -81.14714 | 4990 ft | 295 kts | 92° |
| 2026-05-07 22:34 | 30.45468 | -81.12377 | 4988 ft | 294 kts | 92° |
| 2026-05-07 22:35 | 30.45400 | -81.09973 | 4990 ft | 295 kts | 93° |
| 2026-05-07 22:35 | 30.45338 | -81.07629 | 4988 ft | 295 kts | 92° |
| 2026-05-07 22:35 | 30.45273 | -81.05251 | 4995 ft | 295 kts | 92° |
| 2026-05-07 22:35 | 30.45208 | -81.02876 | 4997 ft | 295 kts | 92° |
| 2026-05-07 22:36 | 30.45144 | -81.00494 | 4998 ft | 296 kts | 92° |
| 2026-05-07 22:36 | 30.45078 | -80.98110 | 4998 ft | 296 kts | 92° |
| 2026-05-07 22:36 | 30.45013 | -80.95730 | 4999 ft | 296 kts | 92° |
| 2026-05-07 22:36 | 30.44949 | -80.93348 | 4998 ft | 296 kts | 92° |
| 2026-05-07 22:37 | 30.44883 | -80.90961 | 4995 ft | 296 kts | 92° |
| 2026-05-07 22:37 | 30.44815 | -80.88597 | 4997 ft | 295 kts | 92° |
| 2026-05-07 22:37 | 30.44732 | -80.86208 | 4996 ft | 295 kts | 92° |
| 2026-05-07 22:37 | 30.44654 | -80.83834 | 4995 ft | 295 kts | 92° |
| 2026-05-07 22:38 | 30.44573 | -80.81460 | 5001 ft | 295 kts | 92° |
| 2026-05-07 22:38 | 30.44488 | -80.79086 | 5000 ft | 294 kts | 92° |
| 2026-05-07 22:38 | 30.44409 | -80.76716 | 4999 ft | 294 kts | 92° |
| 2026-05-07 22:38 | 30.44335 | -80.74349 | 5001 ft | 294 kts | 92° |
| 2026-05-07 22:39 | 30.44265 | -80.71976 | 4997 ft | 294 kts | 92° |
| 2026-05-07 22:39 | 30.44254 | -80.69613 | 4997 ft | 293 kts | 90° |
| 2026-05-07 22:39 | 30.44258 | -80.67252 | 4995 ft | 293 kts | 90° |
| 2026-05-07 22:39 | 30.44254 | -80.64889 | 4994 ft | 293 kts | 91° |
| 2026-05-07 22:40 | 30.44253 | -80.62528 | 4996 ft | 293 kts | 90° |
| 2026-05-07 22:40 | 30.44252 | -80.60164 | 5000 ft | 294 kts | 90° |
| 2026-05-07 22:40 | 30.44248 | -80.57798 | 5002 ft | 294 kts | 90° |
| 2026-05-07 22:40 | 30.44245 | -80.55428 | 5002 ft | 294 kts | 90° |
| 2026-05-07 22:41 | 30.44244 | -80.53060 | 5000 ft | 294 kts | 90° |
| 2026-05-07 22:41 | 30.44239 | -80.50698 | 5000 ft | 293 kts | 90° |
| 2026-05-07 22:41 | 30.44221 | -80.48332 | 5001 ft | 293 kts | 90° |
| 2026-05-07 22:41 | 30.44202 | -80.46002 | 5004 ft | 293 kts | 90° |
| 2026-05-07 22:42 | 30.44176 | -80.43644 | 5004 ft | 292 kts | 90° |
| 2026-05-07 22:42 | 30.44152 | -80.41289 | 5003 ft | 292 kts | 90° |
| 2026-05-07 22:42 | 30.44128 | -80.38937 | 5005 ft | 291 kts | 90° |
| 2026-05-07 22:42 | 30.44107 | -80.36590 | 5003 ft | 291 kts | 90° |
| 2026-05-07 22:43 | 30.44087 | -80.34241 | 5006 ft | 292 kts | 90° |
| 2026-05-07 22:43 | 30.44065 | -80.31891 | 5006 ft | 292 kts | 90° |
| 2026-05-07 22:43 | 30.44043 | -80.29539 | 5010 ft | 292 kts | 90° |
| 2026-05-07 22:43 | 30.44024 | -80.27187 | 5007 ft | 292 kts | 90° |
| 2026-05-07 22:44 | 30.44001 | -80.24834 | 5007 ft | 292 kts | 90° |
| 2026-05-07 22:44 | 30.43979 | -80.22479 | 5007 ft | 292 kts | 90° |
| 2026-05-07 22:44 | 30.43960 | -80.20126 | 5008 ft | 292 kts | 90° |
| 2026-05-07 22:44 | 30.43947 | -80.17766 | 5008 ft | 293 kts | 90° |
| 2026-05-07 22:45 | 30.43935 | -80.15403 | 5014 ft | 293 kts | 90° |
| 2026-05-07 22:45 | 30.43916 | -80.13050 | 5013 ft | 291 kts | 90° |
| 2026-05-07 22:45 | 30.43894 | -80.10703 | 5012 ft | 291 kts | 90° |
| 2026-05-07 22:45 | 30.43866 | -80.08363 | 5013 ft | 290 kts | 90° |
| 2026-05-07 22:46 | 30.43835 | -80.06026 | 5010 ft | 290 kts | 90° |
| 2026-05-07 22:46 | 30.43805 | -80.03693 | 5011 ft | 290 kts | 90° |
| 2026-05-07 22:46 | 30.43778 | -80.01355 | 5013 ft | 290 kts | 90° |
| 2026-05-07 22:46 | 30.43752 | -79.99014 | 5016 ft | 291 kts | 90° |
| 2026-05-07 22:47 | 30.43725 | -79.96672 | 5019 ft | 291 kts | 90° |
| 2026-05-07 22:47 | 30.43698 | -79.94324 | 5017 ft | 291 kts | 90° |
| 2026-05-07 22:47 | 30.43671 | -79.91981 | 5019 ft | 291 kts | 90° |
| 2026-05-07 22:47 | 30.43644 | -79.89639 | 5020 ft | 291 kts | 90° |
| 2026-05-07 22:48 | 30.43622 | -79.87300 | 5015 ft | 290 kts | 90° |
| 2026-05-07 22:48 | 30.43605 | -79.84961 | 5017 ft | 290 kts | 90° |
| 2026-05-07 22:48 | 30.43587 | -79.82622 | 5017 ft | 290 kts | 90° |
| 2026-05-07 22:48 | 30.43568 | -79.80288 | 5017 ft | 289 kts | 90° |
| 2026-05-07 22:49 | 30.43549 | -79.77958 | 5022 ft | 289 kts | 90° |
| 2026-05-07 22:49 | 30.43531 | -79.75632 | 5022 ft | 289 kts | 90° |
| 2026-05-07 22:49 | 30.43518 | -79.73305 | 5021 ft | 288 kts | 90° |
| 2026-05-07 22:49 | 30.43504 | -79.71020 | 5025 ft | 288 kts | 90° |
| 2026-05-07 22:50 | 30.43489 | -79.68671 | 5021 ft | 288 kts | 90° |
| 2026-05-07 22:50 | 30.43472 | -79.66353 | 5020 ft | 287 kts | 90° |
| 2026-05-07 22:50 | 30.43457 | -79.64041 | 5020 ft | 287 kts | 90° |
| 2026-05-07 22:50 | 30.43444 | -79.61764 | 5020 ft | 286 kts | 90° |
| 2026-05-07 22:51 | 30.43428 | -79.59437 | 5025 ft | 287 kts | 90° |
| 2026-05-07 22:51 | 30.43415 | -79.57128 | 5031 ft | 287 kts | 90° |
| 2026-05-07 22:51 | 30.43405 | -79.54816 | 5029 ft | 287 kts | 90° |
| 2026-05-07 22:51 | 30.43397 | -79.52502 | 5029 ft | 287 kts | 90° |
| 2026-05-07 22:52 | 30.43387 | -79.50186 | 5027 ft | 287 kts | 90° |
| 2026-05-07 22:52 | 30.43378 | -79.47874 | 5025 ft | 287 kts | 90° |
| 2026-05-07 22:52 | 30.43371 | -79.45564 | 5025 ft | 287 kts | 90° |
| 2026-05-07 22:52 | 30.43362 | -79.43284 | 5026 ft | 287 kts | 90° |
| 2026-05-07 22:53 | 30.43350 | -79.40949 | 5035 ft | 286 kts | 90° |
| 2026-05-07 22:53 | 30.43341 | -79.38649 | 5035 ft | 285 kts | 90° |
| 2026-05-07 22:53 | 30.43330 | -79.36356 | 5035 ft | 285 kts | 89° |
| 2026-05-07 22:53 | 30.43318 | -79.34092 | 5034 ft | 285 kts | 90° |
| 2026-05-07 22:54 | 30.43306 | -79.31768 | 5032 ft | 285 kts | 90° |
| 2026-05-07 22:54 | 30.43299 | -79.29492 | 5032 ft | 285 kts | 90° |
| 2026-05-07 22:54 | 30.43291 | -79.27188 | 5036 ft | 285 kts | 90° |
| 2026-05-07 22:54 | 30.43284 | -79.24889 | 5036 ft | 285 kts | 90° |
| 2026-05-07 22:55 | 30.43279 | -79.22587 | 5032 ft | 285 kts | 90° |
| 2026-05-07 22:55 | 30.43274 | -79.20291 | 5031 ft | 285 kts | 89° |
| 2026-05-07 22:55 | 30.43267 | -79.17999 | 5031 ft | 285 kts | 89° |
| 2026-05-07 22:55 | 30.43260 | -79.15708 | 5031 ft | 284 kts | 89° |
| 2026-05-07 22:56 | 30.43254 | -79.13419 | 5034 ft | 284 kts | 89° |
| 2026-05-07 22:56 | 30.43248 | -79.11130 | 5038 ft | 284 kts | 89° |
| 2026-05-07 22:56 | 30.43244 | -79.09614 | 5039 ft | 284 kts | 90° |
| 2026-05-07 22:56 | 30.43239 | -79.07326 | 5039 ft | 284 kts | 89° |
| 2026-05-07 22:57 | 30.43234 | -79.05036 | 5042 ft | 284 kts | 89° |
| 2026-05-07 22:57 | 30.43226 | -79.02749 | 5038 ft | 284 kts | 89° |
| 2026-05-07 22:57 | 30.43212 | -79.00467 | 5038 ft | 283 kts | 89° |
| 2026-05-07 22:57 | 30.43198 | -78.98180 | 5040 ft | 283 kts | 89° |
| 2026-05-07 22:58 | 30.43184 | -78.95905 | 5039 ft | 282 kts | 89° |
| 2026-05-07 22:58 | 30.43169 | -78.93630 | 5043 ft | 282 kts | 89° |
| 2026-05-07 22:58 | 30.43157 | -78.91390 | 5043 ft | 282 kts | 89° |
| 2026-05-07 22:58 | 30.43148 | -78.89117 | 5043 ft | 282 kts | 89° |
| 2026-05-07 22:59 | 30.43137 | -78.86846 | 5044 ft | 282 kts | 89° |
| 2026-05-07 22:59 | 30.43127 | -78.84575 | 5039 ft | 282 kts | 89° |
| 2026-05-07 22:59 | 30.43119 | -78.82304 | 5042 ft | 282 kts | 89° |
| 2026-05-07 22:59 | 30.43110 | -78.80033 | 5042 ft | 282 kts | 89° |
| 2026-05-07 23:00 | 30.43098 | -78.77760 | 5043 ft | 282 kts | 89° |
| 2026-05-07 23:00 | 30.43089 | -78.75485 | 5043 ft | 282 kts | 89° |
| 2026-05-07 23:00 | 30.43080 | -78.73215 | 5043 ft | 282 kts | 89° |
| 2026-05-07 23:00 | 30.43071 | -78.70962 | 5043 ft | 282 kts | 89° |
| 2026-05-07 23:01 | 30.43061 | -78.68680 | 5047 ft | 282 kts | 89° |
| 2026-05-07 23:01 | 30.43057 | -78.66410 | 5050 ft | 281 kts | 89° |
| 2026-05-07 23:01 | 30.43052 | -78.64148 | 5050 ft | 281 kts | 89° |
| 2026-05-07 23:01 | 30.43045 | -78.61889 | 5048 ft | 280 kts | 89° |
| 2026-05-07 23:02 | 30.43040 | -78.59633 | 5049 ft | 279 kts | 89° |
| 2026-05-07 23:02 | 30.43037 | -78.57383 | 5046 ft | 279 kts | 89° |
| 2026-05-07 23:02 | 30.43034 | -78.55131 | 5046 ft | 279 kts | 89° |
| 2026-05-07 23:02 | 30.43030 | -78.52885 | 5046 ft | 279 kts | 89° |
| 2026-05-07 23:03 | 30.43028 | -78.50635 | 5046 ft | 279 kts | 89° |
| 2026-05-07 23:03 | 30.43026 | -78.48387 | 5048 ft | 279 kts | 89° |
| 2026-05-07 23:03 | 30.43023 | -78.46139 | 5049 ft | 279 kts | 89° |
| 2026-05-07 23:03 | 30.43021 | -78.43896 | 5046 ft | 279 kts | 89° |
| 2026-05-07 23:04 | 30.43020 | -78.41653 | 5049 ft | 279 kts | 89° |
| 2026-05-07 23:04 | 30.43019 | -78.39407 | 5051 ft | 279 kts | 89° |
| 2026-05-07 23:04 | 30.43017 | -78.37153 | 5052 ft | 279 kts | 89° |
| 2026-05-07 23:04 | 30.43017 | -78.34907 | 5055 ft | 279 kts | 89° |
| 2026-05-07 23:05 | 30.43020 | -78.32660 | 5054 ft | 279 kts | 89° |
| 2026-05-07 23:05 | 30.43022 | -78.30407 | 5055 ft | 280 kts | 89° |
| 2026-05-07 23:05 | 30.43024 | -78.28153 | 5057 ft | 280 kts | 89° |
| 2026-05-07 23:05 | 30.43029 | -78.25898 | 5054 ft | 280 kts | 89° |
| 2026-05-07 23:06 | 30.43034 | -78.23641 | 5051 ft | 280 kts | 89° |
| 2026-05-07 23:06 | 30.43039 | -78.21381 | 5054 ft | 281 kts | 89° |
| 2026-05-07 23:06 | 30.43045 | -78.19117 | 5054 ft | 281 kts | 89° |
| 2026-05-07 23:06 | 30.43052 | -78.16854 | 5055 ft | 281 kts | 89° |
| 2026-05-07 23:07 | 30.43057 | -78.14594 | 5054 ft | 281 kts | 89° |
| 2026-05-07 23:07 | 30.43064 | -78.12332 | 5052 ft | 281 kts | 89° |
| 2026-05-07 23:07 | 30.43075 | -78.10067 | 5052 ft | 281 kts | 89° |
| 2026-05-07 23:07 | 30.43086 | -78.07803 | 5052 ft | 281 kts | 89° |
| 2026-05-07 23:08 | 30.43092 | -78.05539 | 5052 ft | 281 kts | 89° |
| 2026-05-07 23:08 | 30.43101 | -78.03274 | 5052 ft | 281 kts | 89° |
| 2026-05-07 23:08 | 30.43112 | -78.01012 | 5051 ft | 281 kts | 89° |
| 2026-05-07 23:08 | 30.43123 | -77.98749 | 5052 ft | 281 kts | 89° |
| 2026-05-07 23:09 | 30.43132 | -77.96482 | 5053 ft | 281 kts | 89° |
| 2026-05-07 23:09 | 30.43146 | -77.94217 | 5056 ft | 281 kts | 89° |
| 2026-05-07 23:09 | 30.43165 | -77.91983 | 5056 ft | 281 kts | 89° |
| 2026-05-07 23:09 | 30.43185 | -77.89723 | 5056 ft | 280 kts | 89° |
| 2026-05-07 23:10 | 30.43207 | -77.87461 | 5056 ft | 280 kts | 89° |
| 2026-05-07 23:10 | 30.43229 | -77.85200 | 5056 ft | 280 kts | 89° |
| 2026-05-07 23:10 | 30.43251 | -77.82944 | 5055 ft | 280 kts | 89° |
| 2026-05-07 23:10 | 30.43273 | -77.80686 | 5055 ft | 280 kts | 89° |
| 2026-05-07 23:11 | 30.43295 | -77.78429 | 5055 ft | 280 kts | 89° |
| 2026-05-07 23:11 | 30.43318 | -77.76175 | 5054 ft | 280 kts | 89° |
| 2026-05-07 23:11 | 30.43341 | -77.73911 | 5056 ft | 280 kts | 89° |
| 2026-05-07 23:11 | 30.43363 | -77.71651 | 5055 ft | 280 kts | 89° |
| 2026-05-07 23:12 | 30.43387 | -77.69395 | 5055 ft | 280 kts | 89° |
| 2026-05-07 23:12 | 30.43409 | -77.67166 | 5055 ft | 280 kts | 89° |
| 2026-05-07 23:12 | 30.43433 | -77.64912 | 5055 ft | 280 kts | 89° |
| 2026-05-07 23:12 | 30.43459 | -77.62654 | 5056 ft | 280 kts | 89° |
| 2026-05-07 23:13 | 30.43486 | -77.60429 | 5056 ft | 280 kts | 89° |
| 2026-05-07 23:13 | 30.43513 | -77.58121 | 5055 ft | 280 kts | 89° |
| 2026-05-07 23:13 | 30.43552 | -77.55862 | 5056 ft | 281 kts | 89° |
| 2026-05-07 23:13 | 30.43600 | -77.53602 | 5055 ft | 281 kts | 89° |
| 2026-05-07 23:14 | 30.43649 | -77.51339 | 5056 ft | 281 kts | 89° |
| 2026-05-07 23:14 | 30.43699 | -77.49072 | 5059 ft | 282 kts | 89° |
| 2026-05-07 23:14 | 30.43748 | -77.46829 | 5058 ft | 282 kts | 89° |
| 2026-05-07 23:14 | 30.43798 | -77.44561 | 5058 ft | 282 kts | 89° |
| 2026-05-07 23:15 | 30.43849 | -77.42291 | 5058 ft | 282 kts | 89° |
| 2026-05-07 23:15 | 30.43901 | -77.40022 | 5059 ft | 282 kts | 88° |
| 2026-05-07 23:15 | 30.43952 | -77.37756 | 5057 ft | 282 kts | 88° |
| 2026-05-07 23:15 | 30.44003 | -77.35484 | 5058 ft | 282 kts | 88° |
| 2026-05-07 23:16 | 30.44054 | -77.33216 | 5058 ft | 282 kts | 89° |
| 2026-05-07 23:16 | 30.44107 | -77.30944 | 5058 ft | 281 kts | 88° |
| 2026-05-07 23:16 | 30.44161 | -77.28675 | 5058 ft | 282 kts | 88° |
| 2026-05-07 23:16 | 30.44217 | -77.26406 | 5058 ft | 282 kts | 88° |
| 2026-05-07 23:17 | 30.44270 | -77.24137 | 5059 ft | 282 kts | 88° |
| 2026-05-07 23:17 | 30.44325 | -77.21868 | 5061 ft | 282 kts | 89° |
| 2026-05-07 23:17 | 30.44385 | -77.19587 | 5058 ft | 283 kts | 88° |
| 2026-05-07 23:17 | 30.44449 | -77.17301 | 5059 ft | 284 kts | 88° |
| 2026-05-07 23:18 | 30.44510 | -77.15045 | 5059 ft | 284 kts | 88° |
| 2026-05-07 23:18 | 30.44572 | -77.12758 | 5058 ft | 284 kts | 88° |
| 2026-05-07 23:18 | 30.44639 | -77.10468 | 5058 ft | 284 kts | 88° |
| 2026-05-07 23:18 | 30.44707 | -77.08179 | 5061 ft | 284 kts | 88° |
| 2026-05-07 23:19 | 30.44775 | -77.05889 | 5061 ft | 285 kts | 88° |
| 2026-05-07 23:19 | 30.44844 | -77.03593 | 5061 ft | 285 kts | 88° |
| 2026-05-07 23:19 | 30.44911 | -77.01296 | 5061 ft | 285 kts | 88° |
| 2026-05-07 23:19 | 30.44977 | -76.99005 | 5062 ft | 284 kts | 88° |
| 2026-05-07 23:20 | 30.45045 | -76.96713 | 5063 ft | 285 kts | 88° |
| 2026-05-07 23:20 | 30.45115 | -76.94422 | 5063 ft | 285 kts | 88° |
| 2026-05-07 23:20 | 30.45185 | -76.92128 | 5062 ft | 285 kts | 88° |
| 2026-05-07 23:20 | 30.45253 | -76.89835 | 5062 ft | 285 kts | 88° |
| 2026-05-07 23:21 | 30.45323 | -76.87540 | 5060 ft | 285 kts | 88° |
| 2026-05-07 23:21 | 30.45393 | -76.85245 | 5060 ft | 284 kts | 88° |
| 2026-05-07 23:21 | 30.45471 | -76.82957 | 5059 ft | 283 kts | 88° |
| 2026-05-07 23:21 | 30.45837 | -76.80724 | 5044 ft | 283 kts | 67° |
| 2026-05-07 23:22 | 30.47031 | -76.78948 | 5043 ft | 283 kts | 36° |
| 2026-05-07 23:22 | 30.48847 | -76.78142 | 5044 ft | 281 kts | 4° |
| 2026-05-07 23:22 | 30.50762 | -76.78281 | 5051 ft | 279 kts | 351° |
| 2026-05-07 23:22 | 30.52678 | -76.78650 | 5049 ft | 279 kts | 349° |
| 2026-05-07 23:23 | 30.54598 | -76.79007 | 5052 ft | 280 kts | 350° |
| 2026-05-07 23:23 | 30.56521 | -76.79370 | 5055 ft | 280 kts | 349° |
| 2026-05-07 23:23 | 30.58443 | -76.79745 | 5053 ft | 280 kts | 349° |
| 2026-05-07 23:23 | 30.60363 | -76.80106 | 5055 ft | 280 kts | 349° |
| 2026-05-07 23:24 | 30.62284 | -76.80467 | 5049 ft | 280 kts | 349° |
| 2026-05-07 23:24 | 30.64206 | -76.80822 | 5050 ft | 280 kts | 349° |
| 2026-05-07 23:24 | 30.66131 | -76.81173 | 5049 ft | 279 kts | 349° |
| 2026-05-07 23:24 | 30.68051 | -76.81532 | 5050 ft | 280 kts | 349° |
| 2026-05-07 23:25 | 30.69979 | -76.81887 | 5052 ft | 280 kts | 349° |
| 2026-05-07 23:25 | 30.71899 | -76.82242 | 5051 ft | 280 kts | 349° |
| 2026-05-07 23:25 | 30.73822 | -76.82600 | 5052 ft | 280 kts | 349° |
| 2026-05-07 23:25 | 30.75746 | -76.82955 | 5053 ft | 280 kts | 349° |
| 2026-05-07 23:26 | 30.77670 | -76.83312 | 5052 ft | 280 kts | 349° |
| 2026-05-07 23:26 | 30.79596 | -76.83665 | 5052 ft | 280 kts | 349° |
| 2026-05-07 23:26 | 30.81519 | -76.84022 | 5052 ft | 280 kts | 349° |
| 2026-05-07 23:26 | 30.83438 | -76.84384 | 5052 ft | 280 kts | 349° |
| 2026-05-07 23:27 | 30.87281 | -76.85093 | 5060 ft | 280 kts | 349° |
| 2026-05-07 23:27 | 30.89207 | -76.85436 | 5059 ft | 280 kts | 349° |
| 2026-05-07 23:27 | 30.91135 | -76.85769 | 5058 ft | 280 kts | 349° |
| 2026-05-07 23:28 | 30.93054 | -76.86105 | 5058 ft | 279 kts | 349° |
| 2026-05-07 23:28 | 30.94977 | -76.86436 | 5058 ft | 279 kts | 349° |
| 2026-05-07 23:28 | 30.96893 | -76.86770 | 5054 ft | 278 kts | 349° |
| 2026-05-07 23:28 | 30.98808 | -76.87118 | 5055 ft | 278 kts | 349° |
| 2026-05-07 23:29 | 31.00721 | -76.87463 | 5053 ft | 278 kts | 349° |
| 2026-05-07 23:29 | 31.02631 | -76.87814 | 5053 ft | 278 kts | 349° |
| 2026-05-07 23:29 | 31.04543 | -76.88162 | 5053 ft | 278 kts | 349° |
| 2026-05-07 23:29 | 31.06454 | -76.88504 | 5024 ft | 279 kts | 349° |
| 2026-05-07 23:30 | 31.08375 | -76.88850 | 4996 ft | 279 kts | 349° |
| 2026-05-07 23:30 | 31.10298 | -76.89190 | 4997 ft | 279 kts | 349° |
| 2026-05-07 23:30 | 31.12198 | -76.89530 | 4996 ft | 279 kts | 349° |
| 2026-05-07 23:30 | 31.14137 | -76.89881 | 4999 ft | 279 kts | 348° |
| 2026-05-07 23:31 | 31.16056 | -76.90216 | 4995 ft | 279 kts | 349° |
| 2026-05-07 23:31 | 31.17974 | -76.90554 | 4995 ft | 278 kts | 349° |
| 2026-05-07 23:31 | 31.19888 | -76.90887 | 4992 ft | 278 kts | 349° |
| 2026-05-07 23:31 | 31.21776 | -76.91214 | 4992 ft | 277 kts | 349° |
| 2026-05-07 23:32 | 31.23684 | -76.91553 | 4997 ft | 277 kts | 348° |
| 2026-05-07 23:32 | 31.25594 | -76.91887 | 4996 ft | 278 kts | 349° |
| 2026-05-07 23:32 | 31.27522 | -76.92040 | 4978 ft | 280 kts | 4° |
| 2026-05-07 23:32 | 31.29343 | -76.91242 | 4983 ft | 285 kts | 34° |
| 2026-05-07 23:33 | 31.30586 | -76.89455 | 4983 ft | 287 kts | 64° |
| 2026-05-07 23:33 | 31.31278 | -76.87273 | 4988 ft | 287 kts | 71° |
| 2026-05-07 23:33 | 31.31882 | -76.85046 | 4989 ft | 287 kts | 73° |
| 2026-05-07 23:33 | 31.32427 | -76.82794 | 4988 ft | 288 kts | 75° |
| 2026-05-07 23:34 | 31.32952 | -76.80531 | 4988 ft | 289 kts | 75° |
| 2026-05-07 23:34 | 31.33473 | -76.78259 | 4990 ft | 289 kts | 75° |
| 2026-05-07 23:34 | 31.33990 | -76.75989 | 4990 ft | 289 kts | 75° |
| 2026-05-07 23:34 | 31.34511 | -76.73714 | 4991 ft | 290 kts | 75° |
| 2026-05-07 23:35 | 31.35034 | -76.71439 | 4989 ft | 290 kts | 75° |
| 2026-05-07 23:35 | 31.35559 | -76.69159 | 4990 ft | 290 kts | 75° |
| 2026-05-07 23:35 | 31.36081 | -76.66878 | 4990 ft | 290 kts | 75° |
| 2026-05-07 23:35 | 31.36605 | -76.64599 | 4992 ft | 290 kts | 75° |
| 2026-05-07 23:36 | 31.37132 | -76.62321 | 4991 ft | 290 kts | 75° |
| 2026-05-07 23:36 | 31.37659 | -76.60042 | 4991 ft | 290 kts | 75° |
| 2026-05-07 23:36 | 31.38182 | -76.57762 | 4992 ft | 290 kts | 75° |
| 2026-05-07 23:36 | 31.38706 | -76.55477 | 4993 ft | 291 kts | 75° |
| 2026-05-07 23:37 | 31.39233 | -76.53191 | 4994 ft | 291 kts | 75° |
| 2026-05-07 23:37 | 31.39759 | -76.50901 | 4993 ft | 291 kts | 75° |
| 2026-05-07 23:37 | 31.40286 | -76.48609 | 4997 ft | 292 kts | 75° |
| 2026-05-07 23:37 | 31.40821 | -76.46322 | 4999 ft | 291 kts | 75° |
| 2026-05-07 23:38 | 31.41362 | -76.44029 | 4997 ft | 292 kts | 75° |
| 2026-05-07 23:38 | 31.41906 | -76.41738 | 4998 ft | 293 kts | 75° |
| 2026-05-07 23:38 | 31.42451 | -76.39440 | 4999 ft | 293 kts | 75° |
| 2026-05-07 23:38 | 31.42991 | -76.37168 | 4998 ft | 293 kts | 75° |
| 2026-05-07 23:39 | 31.43542 | -76.34835 | 4999 ft | 293 kts | 75° |
| 2026-05-07 23:39 | 31.44073 | -76.32567 | 4999 ft | 293 kts | 75° |
| 2026-05-07 23:39 | 31.44622 | -76.30237 | 5000 ft | 293 kts | 75° |
| 2026-05-07 23:39 | 31.45161 | -76.27938 | 4999 ft | 292 kts | 75° |
| 2026-05-07 23:40 | 31.45700 | -76.25640 | 4996 ft | 293 kts | 75° |
| 2026-05-07 23:40 | 31.46240 | -76.23346 | 4994 ft | 292 kts | 75° |
| 2026-05-07 23:40 | 31.46773 | -76.21085 | 4998 ft | 292 kts | 75° |
| 2026-05-07 23:40 | 31.47317 | -76.18793 | 4998 ft | 292 kts | 75° |
| 2026-05-07 23:41 | 31.47863 | -76.16504 | 5000 ft | 292 kts | 75° |
| 2026-05-07 23:41 | 31.48413 | -76.14214 | 5000 ft | 292 kts | 75° |
| 2026-05-07 23:41 | 31.48964 | -76.11925 | 5002 ft | 292 kts | 75° |
| 2026-05-07 23:41 | 31.49509 | -76.09634 | 5002 ft | 292 kts | 75° |
| 2026-05-07 23:42 | 31.50054 | -76.07342 | 5003 ft | 292 kts | 75° |
| 2026-05-07 23:42 | 31.50602 | -76.05053 | 5002 ft | 292 kts | 75° |
| 2026-05-07 23:42 | 31.51149 | -76.02760 | 5001 ft | 292 kts | 75° |
| 2026-05-07 23:42 | 31.51697 | -76.00468 | 5002 ft | 293 kts | 75° |
| 2026-05-07 23:43 | 31.52251 | -75.98174 | 4998 ft | 292 kts | 75° |
| 2026-05-07 23:43 | 31.52805 | -75.95883 | 4997 ft | 292 kts | 75° |
| 2026-05-07 23:43 | 31.53181 | -75.94335 | 4997 ft | 292 kts | 75° |
| 2026-05-07 23:43 | 31.53737 | -75.92046 | 5000 ft | 292 kts | 75° |
| 2026-05-07 23:44 | 31.54286 | -75.89791 | 5000 ft | 292 kts | 75° |
| 2026-05-07 23:44 | 31.54833 | -75.87499 | 4995 ft | 291 kts | 76° |
| 2026-05-07 23:44 | 31.55232 | -75.85177 | 4996 ft | 291 kts | 81° |
| 2026-05-07 23:44 | 31.55556 | -75.82833 | 4994 ft | 292 kts | 82° |
| 2026-05-07 23:45 | 31.55883 | -75.80481 | 4994 ft | 292 kts | 82° |
| 2026-05-07 23:45 | 31.56206 | -75.78128 | 4994 ft | 293 kts | 82° |
| 2026-05-07 23:45 | 31.56509 | -75.75768 | 4995 ft | 293 kts | 82° |
| 2026-05-07 23:45 | 31.56810 | -75.73410 | 4995 ft | 292 kts | 82° |
| 2026-05-07 23:46 | 31.57110 | -75.71051 | 4994 ft | 292 kts | 82° |
| 2026-05-07 23:46 | 31.57413 | -75.68694 | 4999 ft | 293 kts | 82° |
| 2026-05-07 23:46 | 31.57717 | -75.66336 | 4998 ft | 293 kts | 82° |
| 2026-05-07 23:46 | 31.58022 | -75.63974 | 4997 ft | 293 kts | 82° |
| 2026-05-07 23:47 | 31.58328 | -75.61612 | 4997 ft | 293 kts | 82° |
| 2026-05-07 23:47 | 31.58635 | -75.59250 | 5001 ft | 292 kts | 82° |
| 2026-05-07 23:47 | 31.58934 | -75.56896 | 4998 ft | 292 kts | 83° |
| 2026-05-07 23:47 | 31.59235 | -75.54543 | 4999 ft | 292 kts | 82° |
| 2026-05-07 23:48 | 31.59541 | -75.52198 | 5000 ft | 291 kts | 82° |
| 2026-05-07 23:48 | 31.59845 | -75.49884 | 4994 ft | 291 kts | 82° |
| 2026-05-07 23:48 | 31.60137 | -75.47537 | 4999 ft | 291 kts | 83° |
| 2026-05-07 23:48 | 31.60414 | -75.45187 | 4999 ft | 290 kts | 83° |
| 2026-05-07 23:49 | 31.60685 | -75.42840 | 4998 ft | 291 kts | 83° |
| 2026-05-07 23:49 | 31.60963 | -75.40490 | 4999 ft | 291 kts | 83° |
| 2026-05-07 23:49 | 31.61252 | -75.38148 | 5000 ft | 290 kts | 83° |
| 2026-05-07 23:49 | 31.61542 | -75.35815 | 4999 ft | 289 kts | 83° |
| 2026-05-07 23:50 | 31.61836 | -75.33480 | 4999 ft | 289 kts | 83° |
| 2026-05-07 23:50 | 31.62128 | -75.31149 | 5000 ft | 289 kts | 83° |
| 2026-05-07 23:50 | 31.62415 | -75.28816 | 5000 ft | 289 kts | 83° |
| 2026-05-07 23:50 | 31.62703 | -75.26482 | 5000 ft | 289 kts | 83° |
| 2026-05-07 23:51 | 31.62993 | -75.24153 | 5000 ft | 288 kts | 83° |
| 2026-05-07 23:51 | 31.63281 | -75.21825 | 4999 ft | 288 kts | 83° |
| 2026-05-07 23:51 | 31.63573 | -75.19495 | 5003 ft | 289 kts | 83° |
| 2026-05-07 23:51 | 31.63863 | -75.17166 | 5000 ft | 289 kts | 83° |
| 2026-05-07 23:52 | 31.64155 | -75.14836 | 4998 ft | 289 kts | 83° |
| 2026-05-07 23:52 | 31.64453 | -75.12508 | 4998 ft | 289 kts | 83° |
| 2026-05-07 23:52 | 31.64750 | -75.10176 | 4999 ft | 288 kts | 83° |
| 2026-05-07 23:52 | 31.65024 | -75.07852 | 4999 ft | 288 kts | 84° |
| 2026-05-07 23:53 | 31.65291 | -75.05523 | 4999 ft | 288 kts | 84° |
| 2026-05-07 23:53 | 31.65562 | -75.03193 | 4999 ft | 287 kts | 84° |
| 2026-05-07 23:53 | 31.65836 | -75.00870 | 4998 ft | 287 kts | 84° |
| 2026-05-07 23:53 | 31.66112 | -74.98549 | 5000 ft | 287 kts | 84° |
| 2026-05-07 23:54 | 31.66383 | -74.96223 | 4999 ft | 287 kts | 84° |
| 2026-05-07 23:54 | 31.66650 | -74.93900 | 4996 ft | 287 kts | 84° |
| 2026-05-07 23:54 | 31.66927 | -74.91570 | 4997 ft | 288 kts | 84° |
| 2026-05-07 23:54 | 31.67204 | -74.89245 | 4999 ft | 288 kts | 84° |
| 2026-05-07 23:55 | 31.67478 | -74.86920 | 4997 ft | 288 kts | 84° |
| 2026-05-07 23:55 | 31.67756 | -74.84590 | 5001 ft | 288 kts | 84° |
| 2026-05-07 23:55 | 31.68034 | -74.82255 | 5000 ft | 288 kts | 84° |
| 2026-05-07 23:55 | 31.68310 | -74.79925 | 4999 ft | 288 kts | 84° |
| 2026-05-07 23:56 | 31.68592 | -74.77596 | 5002 ft | 288 kts | 83° |
| 2026-05-07 23:56 | 31.68869 | -74.75261 | 5003 ft | 288 kts | 84° |
| 2026-05-07 23:56 | 31.69141 | -74.72930 | 5001 ft | 288 kts | 84° |
| 2026-05-07 23:56 | 31.69416 | -74.70597 | 5002 ft | 289 kts | 84° |
| 2026-05-07 23:57 | 31.69685 | -74.68287 | 5004 ft | 289 kts | 84° |
| 2026-05-07 23:57 | 31.69955 | -74.65953 | 5002 ft | 290 kts | 84° |
| 2026-05-07 23:57 | 31.70233 | -74.63599 | 5006 ft | 291 kts | 84° |
| 2026-05-07 23:57 | 31.70509 | -74.61248 | 5006 ft | 291 kts | 84° |
| 2026-05-07 23:58 | 31.70781 | -74.58896 | 5005 ft | 291 kts | 84° |
| 2026-05-07 23:58 | 31.71057 | -74.56540 | 5007 ft | 291 kts | 84° |
| 2026-05-07 23:58 | 31.71332 | -74.54183 | 5006 ft | 291 kts | 84° |
| 2026-05-07 23:58 | 31.71604 | -74.51827 | 5006 ft | 291 kts | 84° |
| 2026-05-07 23:59 | 31.71881 | -74.49471 | 5012 ft | 291 kts | 84° |
| 2026-05-07 23:59 | 31.72158 | -74.47113 | 5012 ft | 291 kts | 84° |
| 2026-05-07 23:59 | 31.72433 | -74.44759 | 5010 ft | 291 kts | 84° |
| 2026-05-07 23:59 | 31.72708 | -74.42404 | 5011 ft | 291 kts | 83° |
| 2026-05-08 00:00 | 31.72982 | -74.40050 | 5012 ft | 290 kts | 84° |
| 2026-05-08 00:00 | 31.73259 | -74.37702 | 5009 ft | 290 kts | 84° |
| 2026-05-08 00:00 | 31.73543 | -74.35351 | 5007 ft | 290 kts | 84° |
| 2026-05-08 00:00 | 31.73827 | -74.33009 | 5009 ft | 290 kts | 84° |
| 2026-05-08 00:01 | 31.74111 | -74.30664 | 5006 ft | 290 kts | 84° |
| 2026-05-08 00:01 | 31.74397 | -74.28324 | 5008 ft | 290 kts | 84° |
| 2026-05-08 00:01 | 31.74680 | -74.25980 | 5008 ft | 289 kts | 84° |
| 2026-05-08 00:01 | 31.74960 | -74.23635 | 5008 ft | 290 kts | 84° |
| 2026-05-08 00:02 | 31.75243 | -74.21289 | 5011 ft | 290 kts | 84° |
| 2026-05-08 00:02 | 31.75530 | -74.18940 | 5012 ft | 291 kts | 83° |
| 2026-05-08 00:02 | 31.75816 | -74.16586 | 5010 ft | 291 kts | 84° |
| 2026-05-08 00:02 | 31.76100 | -74.14225 | 5012 ft | 292 kts | 84° |
| 2026-05-08 00:03 | 31.76384 | -74.11866 | 5012 ft | 291 kts | 84° |
| 2026-05-08 00:03 | 31.76665 | -74.09507 | 5010 ft | 292 kts | 83° |
| 2026-05-08 00:03 | 31.76950 | -74.07148 | 5010 ft | 292 kts | 83° |
| 2026-05-08 00:03 | 31.77233 | -74.04790 | 5010 ft | 291 kts | 83° |
| 2026-05-08 00:04 | 31.77513 | -74.02434 | 5010 ft | 291 kts | 84° |
| 2026-05-08 00:04 | 31.77791 | -74.00109 | 5010 ft | 291 kts | 84° |
| 2026-05-08 00:04 | 31.78074 | -73.97758 | 5011 ft | 290 kts | 83° |
| 2026-05-08 00:04 | 31.78352 | -73.95407 | 5011 ft | 290 kts | 84° |
| 2026-05-08 00:05 | 31.78634 | -73.93060 | 5013 ft | 290 kts | 83° |
| 2026-05-08 00:05 | 31.78922 | -73.90712 | 5014 ft | 290 kts | 83° |
| 2026-05-08 00:05 | 31.79210 | -73.88363 | 5014 ft | 290 kts | 83° |
| 2026-05-08 00:05 | 31.79499 | -73.86015 | 5014 ft | 290 kts | 84° |
| 2026-05-08 00:06 | 31.79790 | -73.83666 | 5015 ft | 290 kts | 83° |
| 2026-05-08 00:06 | 31.80075 | -73.81321 | 5015 ft | 290 kts | 84° |
| 2026-05-08 00:06 | 31.80363 | -73.78971 | 5015 ft | 290 kts | 84° |
| 2026-05-08 00:06 | 31.80655 | -73.76625 | 5014 ft | 290 kts | 83° |
| 2026-05-08 00:07 | 31.80943 | -73.74275 | 5015 ft | 290 kts | 84° |
| 2026-05-08 00:07 | 31.81239 | -73.71927 | 5015 ft | 290 kts | 83° |
| 2026-05-08 00:07 | 31.81554 | -73.69583 | 5016 ft | 290 kts | 82° |
| 2026-05-08 00:07 | 31.81873 | -73.67242 | 5015 ft | 290 kts | 82° |
| 2026-05-08 00:08 | 31.82212 | -73.64908 | 5020 ft | 290 kts | 82° |
| 2026-05-08 00:08 | 31.82565 | -73.62570 | 5020 ft | 290 kts | 81° |
| 2026-05-08 00:08 | 31.82912 | -73.60238 | 5020 ft | 290 kts | 81° |
| 2026-05-08 00:08 | 31.83261 | -73.57895 | 5020 ft | 290 kts | 82° |
| 2026-05-08 00:09 | 31.83608 | -73.55560 | 5020 ft | 290 kts | 81° |
| 2026-05-08 00:09 | 31.83956 | -73.53221 | 5020 ft | 290 kts | 82° |
| 2026-05-08 00:09 | 31.84308 | -73.50888 | 5020 ft | 290 kts | 81° |
| 2026-05-08 00:09 | 31.84664 | -73.48548 | 5020 ft | 291 kts | 81° |
| 2026-05-08 00:10 | 31.85018 | -73.46209 | 5018 ft | 291 kts | 82° |
| 2026-05-08 00:10 | 31.85373 | -73.43892 | 5018 ft | 291 kts | 81° |
| 2026-05-08 00:10 | 31.85735 | -73.41520 | 5018 ft | 291 kts | 81° |
| 2026-05-08 00:10 | 31.86085 | -73.39208 | 5017 ft | 291 kts | 81° |
| 2026-05-08 00:11 | 31.86443 | -73.36861 | 5020 ft | 291 kts | 81° |
| 2026-05-08 00:11 | 31.86797 | -73.34519 | 5021 ft | 291 kts | 81° |
| 2026-05-08 00:11 | 31.87150 | -73.32173 | 5020 ft | 291 kts | 81° |
| 2026-05-08 00:11 | 31.87505 | -73.29824 | 5017 ft | 291 kts | 81° |
| 2026-05-08 00:12 | 31.87858 | -73.27484 | 5018 ft | 290 kts | 81° |
| 2026-05-08 00:12 | 31.88212 | -73.25151 | 5017 ft | 290 kts | 81° |
| 2026-05-08 00:12 | 31.88569 | -73.22815 | 5021 ft | 290 kts | 81° |
| 2026-05-08 00:12 | 31.88923 | -73.20486 | 5020 ft | 289 kts | 81° |
| 2026-05-08 00:13 | 31.89279 | -73.18159 | 5021 ft | 289 kts | 81° |
| 2026-05-08 00:13 | 31.89637 | -73.15827 | 5021 ft | 289 kts | 81° |
| 2026-05-08 00:13 | 31.89989 | -73.13501 | 5019 ft | 289 kts | 81° |
| 2026-05-08 00:13 | 31.90343 | -73.11178 | 5018 ft | 289 kts | 81° |
| 2026-05-08 00:14 | 31.90702 | -73.08849 | 5019 ft | 289 kts | 81° |
| 2026-05-08 00:14 | 31.91057 | -73.06523 | 5019 ft | 289 kts | 81° |
| 2026-05-08 00:14 | 31.91411 | -73.04198 | 5020 ft | 289 kts | 81° |
| 2026-05-08 00:14 | 31.91767 | -73.01870 | 5020 ft | 289 kts | 81° |
| 2026-05-08 00:15 | 31.92120 | -72.99539 | 5020 ft | 289 kts | 81° |
| 2026-05-08 00:15 | 31.92475 | -72.97208 | 5019 ft | 289 kts | 81° |
| 2026-05-08 00:15 | 31.92829 | -72.94883 | 5024 ft | 288 kts | 81° |
| 2026-05-08 00:15 | 31.93178 | -72.92561 | 5022 ft | 288 kts | 81° |
| 2026-05-08 00:16 | 31.93530 | -72.90237 | 5022 ft | 288 kts | 81° |
| 2026-05-08 00:16 | 31.93882 | -72.87917 | 5022 ft | 288 kts | 81° |
| 2026-05-08 00:16 | 31.94234 | -72.85600 | 5021 ft | 287 kts | 81° |
| 2026-05-08 00:16 | 31.94592 | -72.83283 | 5021 ft | 288 kts | 81° |
| 2026-05-08 00:17 | 31.94947 | -72.80966 | 5022 ft | 287 kts | 81° |
| 2026-05-08 00:17 | 31.95299 | -72.78650 | 5021 ft | 288 kts | 81° |
| 2026-05-08 00:17 | 31.95654 | -72.76329 | 5023 ft | 288 kts | 81° |
| 2026-05-08 00:17 | 31.96005 | -72.74008 | 5023 ft | 288 kts | 81° |
| 2026-05-08 00:18 | 31.96353 | -72.71685 | 5017 ft | 289 kts | 81° |
| 2026-05-08 00:18 | 31.96700 | -72.69378 | 5025 ft | 289 kts | 81° |
| 2026-05-08 00:18 | 31.97049 | -72.67046 | 5024 ft | 289 kts | 81° |
| 2026-05-08 00:18 | 31.97399 | -72.64712 | 5024 ft | 290 kts | 81° |
| 2026-05-08 00:19 | 31.97751 | -72.62372 | 5026 ft | 290 kts | 81° |
| 2026-05-08 00:19 | 31.98103 | -72.60032 | 5025 ft | 290 kts | 81° |
| 2026-05-08 00:19 | 31.98456 | -72.57695 | 5023 ft | 290 kts | 81° |
| 2026-05-08 00:19 | 31.98810 | -72.55359 | 5026 ft | 289 kts | 81° |
| 2026-05-08 00:20 | 31.99161 | -72.53022 | 5025 ft | 289 kts | 81° |
| 2026-05-08 00:20 | 31.99511 | -72.50694 | 5024 ft | 289 kts | 81° |
| 2026-05-08 00:20 | 31.99862 | -72.48363 | 5015 ft | 288 kts | 81° |
| 2026-05-08 00:20 | 32.00198 | -72.46037 | 5023 ft | 288 kts | 82° |
| 2026-05-08 00:21 | 32.00518 | -72.43706 | 5024 ft | 289 kts | 82° |
| 2026-05-08 00:21 | 32.00838 | -72.41373 | 5024 ft | 288 kts | 82° |
| 2026-05-08 00:21 | 32.01157 | -72.39039 | 5025 ft | 288 kts | 82° |
| 2026-05-08 00:21 | 32.01479 | -72.36701 | 5026 ft | 289 kts | 82° |
| 2026-05-08 00:22 | 32.01804 | -72.34361 | 5023 ft | 289 kts | 82° |
| 2026-05-08 00:22 | 32.02125 | -72.32024 | 5024 ft | 289 kts | 82° |
| 2026-05-08 00:22 | 32.02448 | -72.29686 | 5023 ft | 289 kts | 82° |
| 2026-05-08 00:22 | 32.02768 | -72.27380 | 5022 ft | 289 kts | 82° |
| 2026-05-08 00:23 | 32.03088 | -72.25047 | 5024 ft | 288 kts | 82° |
| 2026-05-08 00:23 | 32.03406 | -72.22712 | 5026 ft | 288 kts | 82° |
| 2026-05-08 00:23 | 32.03721 | -72.20379 | 5025 ft | 288 kts | 82° |
| 2026-05-08 00:23 | 32.04036 | -72.18047 | 5024 ft | 288 kts | 82° |
| 2026-05-08 00:24 | 32.04352 | -72.15717 | 5022 ft | 288 kts | 82° |
| 2026-05-08 00:24 | 32.04669 | -72.13388 | 5023 ft | 287 kts | 82° |
| 2026-05-08 00:24 | 32.04984 | -72.11061 | 5023 ft | 287 kts | 82° |
| 2026-05-08 00:24 | 32.05296 | -72.08739 | 5024 ft | 287 kts | 82° |
| 2026-05-08 00:25 | 32.05609 | -72.06412 | 5026 ft | 287 kts | 82° |
| 2026-05-08 00:25 | 32.05923 | -72.04086 | 5024 ft | 287 kts | 82° |
| 2026-05-08 00:25 | 32.06240 | -72.01756 | 5025 ft | 288 kts | 82° |
| 2026-05-08 00:25 | 32.06559 | -71.99423 | 5025 ft | 288 kts | 82° |
| 2026-05-08 00:26 | 32.06875 | -71.97096 | 5018 ft | 287 kts | 82° |
| 2026-05-08 00:26 | 32.07192 | -71.94768 | 5027 ft | 287 kts | 82° |
| 2026-05-08 00:26 | 32.07506 | -71.92445 | 5027 ft | 287 kts | 82° |
| 2026-05-08 00:26 | 32.07820 | -71.90115 | 5028 ft | 287 kts | 81° |
| 2026-05-08 00:27 | 32.08130 | -71.87788 | 5027 ft | 287 kts | 82° |
| 2026-05-08 00:27 | 32.08435 | -71.85464 | 5025 ft | 287 kts | 82° |
| 2026-05-08 00:27 | 32.08738 | -71.83142 | 5015 ft | 286 kts | 82° |
| 2026-05-08 00:27 | 32.08941 | -71.81604 | 5023 ft | 286 kts | 82° |
| 2026-05-08 00:28 | 32.09346 | -71.78532 | 5023 ft | 286 kts | 81° |
| 2026-05-08 00:28 | 32.09650 | -71.76215 | 5023 ft | 286 kts | 82° |
| 2026-05-08 00:28 | 32.09952 | -71.73895 | 5024 ft | 286 kts | 82° |
| 2026-05-08 00:28 | 32.10253 | -71.71578 | 5025 ft | 286 kts | 82° |
| 2026-05-08 00:29 | 32.10555 | -71.69257 | 5025 ft | 286 kts | 82° |
| 2026-05-08 00:29 | 32.10760 | -71.67686 | 5026 ft | 287 kts | 82° |
| 2026-05-08 00:29 | 32.11060 | -71.65391 | 5026 ft | 286 kts | 82° |
| 2026-05-08 00:29 | 32.11365 | -71.63072 | 5025 ft | 286 kts | 82° |
| 2026-05-08 00:30 | 32.11670 | -71.60752 | 5024 ft | 286 kts | 82° |
| 2026-05-08 00:30 | 32.11976 | -71.58431 | 5025 ft | 286 kts | 82° |
| 2026-05-08 00:30 | 32.12283 | -71.56113 | 5028 ft | 286 kts | 82° |
| 2026-05-08 00:30 | 32.12592 | -71.53791 | 5012 ft | 286 kts | 81° |
| 2026-05-08 00:31 | 32.12875 | -71.51469 | 5022 ft | 286 kts | 82° |
| 2026-05-08 00:31 | 32.13135 | -71.49147 | 5021 ft | 285 kts | 82° |
| 2026-05-08 00:31 | 32.13396 | -71.46827 | 5022 ft | 286 kts | 82° |
| 2026-05-08 00:31 | 32.13660 | -71.44502 | 5023 ft | 286 kts | 82° |
| 2026-05-08 00:32 | 32.13925 | -71.42179 | 5021 ft | 286 kts | 82° |
| 2026-05-08 00:32 | 32.14192 | -71.39851 | 5021 ft | 286 kts | 82° |
| 2026-05-08 00:32 | 32.14450 | -71.37528 | 5022 ft | 285 kts | 83° |
| 2026-05-08 00:32 | 32.14685 | -71.35202 | 5021 ft | 285 kts | 83° |
| 2026-05-08 00:33 | 32.14917 | -71.32877 | 5021 ft | 286 kts | 83° |
| 2026-05-08 00:33 | 32.15149 | -71.30548 | 5023 ft | 286 kts | 83° |
| 2026-05-08 00:33 | 32.15381 | -71.28217 | 5022 ft | 286 kts | 83° |
| 2026-05-08 00:33 | 32.15615 | -71.25889 | 5021 ft | 286 kts | 83° |
| 2026-05-08 00:34 | 32.15849 | -71.23558 | 5021 ft | 286 kts | 83° |
| 2026-05-08 00:34 | 32.16084 | -71.21228 | 5021 ft | 285 kts | 83° |
| 2026-05-08 00:34 | 32.16320 | -71.18900 | 5021 ft | 285 kts | 83° |
| 2026-05-08 00:34 | 32.16558 | -71.16576 | 5021 ft | 285 kts | 83° |
| 2026-05-08 00:35 | 32.16792 | -71.14255 | 5022 ft | 285 kts | 83° |
| 2026-05-08 00:35 | 32.17027 | -71.11925 | 5025 ft | 286 kts | 83° |
| 2026-05-08 00:35 | 32.17263 | -71.09597 | 5024 ft | 286 kts | 83° |
| 2026-05-08 00:35 | 32.17499 | -71.07262 | 5025 ft | 286 kts | 83° |
| 2026-05-08 00:36 | 32.17736 | -71.04928 | 5024 ft | 286 kts | 83° |
| 2026-05-08 00:36 | 32.17976 | -71.02596 | 5012 ft | 286 kts | 83° |
| 2026-05-08 00:36 | 32.18213 | -71.00267 | 5026 ft | 286 kts | 83° |
| 2026-05-08 00:36 | 32.18448 | -70.97936 | 5026 ft | 286 kts | 83° |
| 2026-05-08 00:37 | 32.18686 | -70.95602 | 5027 ft | 286 kts | 83° |
| 2026-05-08 00:37 | 32.18922 | -70.93276 | 5028 ft | 285 kts | 83° |
| 2026-05-08 00:37 | 32.19134 | -70.90948 | 5027 ft | 285 kts | 84° |
| 2026-05-08 00:38 | 32.19545 | -70.86282 | 5031 ft | 285 kts | 84° |
| 2026-05-08 00:38 | 32.19741 | -70.83949 | 5035 ft | 285 kts | 84° |
| 2026-05-08 00:38 | 32.19932 | -70.81649 | 5033 ft | 285 kts | 84° |
| 2026-05-08 00:38 | 32.20127 | -70.79316 | 5033 ft | 285 kts | 84° |
| 2026-05-08 00:39 | 32.20321 | -70.76992 | 5034 ft | 285 kts | 84° |
| 2026-05-08 00:39 | 32.20516 | -70.74630 | 5033 ft | 285 kts | 84° |
| 2026-05-08 00:39 | 32.20710 | -70.72297 | 5035 ft | 286 kts | 84° |
| 2026-05-08 00:39 | 32.20903 | -70.69991 | 5035 ft | 285 kts | 84° |
| 2026-05-08 00:40 | 32.21097 | -70.67659 | 5033 ft | 286 kts | 84° |
| 2026-05-08 00:40 | 32.21295 | -70.65320 | 5034 ft | 286 kts | 84° |
| 2026-05-08 00:40 | 32.21492 | -70.62991 | 5032 ft | 285 kts | 84° |
| 2026-05-08 00:40 | 32.21691 | -70.60655 | 5027 ft | 286 kts | 84° |
| 2026-05-08 00:41 | 32.21890 | -70.58325 | 5032 ft | 285 kts | 84° |
| 2026-05-08 00:41 | 32.22080 | -70.55995 | 5033 ft | 285 kts | 85° |
| 2026-05-08 00:41 | 32.22202 | -70.53660 | 5032 ft | 285 kts | 87° |
| 2026-05-08 00:41 | 32.22294 | -70.51316 | 5033 ft | 285 kts | 87° |
| 2026-05-08 00:42 | 32.22383 | -70.48975 | 5033 ft | 285 kts | 87° |
| 2026-05-08 00:42 | 32.22472 | -70.46631 | 5039 ft | 286 kts | 87° |
| 2026-05-08 00:42 | 32.22560 | -70.44285 | 5039 ft | 286 kts | 87° |
| 2026-05-08 00:42 | 32.22649 | -70.41939 | 5039 ft | 286 kts | 87° |
| 2026-05-08 00:43 | 32.22741 | -70.39589 | 5031 ft | 286 kts | 87° |
| 2026-05-08 00:43 | 32.22833 | -70.37239 | 5035 ft | 286 kts | 87° |
| 2026-05-08 00:43 | 32.22923 | -70.34894 | 5035 ft | 286 kts | 87° |
| 2026-05-08 00:43 | 32.23014 | -70.32548 | 5035 ft | 286 kts | 87° |
| 2026-05-08 00:44 | 32.23104 | -70.30202 | 5036 ft | 286 kts | 87° |
| 2026-05-08 00:44 | 32.23193 | -70.27859 | 5038 ft | 286 kts | 87° |
| 2026-05-08 00:44 | 32.23284 | -70.25514 | 5038 ft | 286 kts | 87° |
| 2026-05-08 00:44 | 32.23377 | -70.23171 | 5038 ft | 286 kts | 87° |
| 2026-05-08 00:45 | 32.23470 | -70.20823 | 5037 ft | 286 kts | 87° |
| 2026-05-08 00:45 | 32.23564 | -70.18482 | 5038 ft | 286 kts | 87° |
| 2026-05-08 00:45 | 32.23655 | -70.16136 | 5037 ft | 286 kts | 87° |
| 2026-05-08 00:45 | 32.23744 | -70.13792 | 5037 ft | 286 kts | 87° |
| 2026-05-08 00:46 | 32.23829 | -70.11448 | 5038 ft | 286 kts | 87° |
| 2026-05-08 00:46 | 32.23915 | -70.09105 | 5038 ft | 286 kts | 87° |
| 2026-05-08 00:46 | 32.24003 | -70.06764 | 5038 ft | 286 kts | 87° |
| 2026-05-08 00:46 | 32.24093 | -70.04417 | 5038 ft | 286 kts | 87° |
| 2026-05-08 00:47 | 32.24182 | -70.02073 | 5036 ft | 286 kts | 87° |
| 2026-05-08 00:47 | 32.24273 | -69.99731 | 5035 ft | 285 kts | 87° |
| 2026-05-08 00:47 | 32.24365 | -69.97385 | 5035 ft | 285 kts | 87° |
| 2026-05-08 00:47 | 32.24457 | -69.95045 | 5034 ft | 285 kts | 87° |
| 2026-05-08 00:48 | 32.24550 | -69.92707 | 5039 ft | 285 kts | 87° |
| 2026-05-08 00:48 | 32.24644 | -69.90360 | 5039 ft | 285 kts | 87° |
| 2026-05-08 00:48 | 32.24736 | -69.88018 | 5040 ft | 285 kts | 87° |
| 2026-05-08 00:48 | 32.24826 | -69.85679 | 5038 ft | 285 kts | 87° |
| 2026-05-08 00:49 | 32.24917 | -69.83337 | 5041 ft | 285 kts | 87° |
| 2026-05-08 00:49 | 32.25007 | -69.80996 | 5040 ft | 285 kts | 87° |
| 2026-05-08 00:49 | 32.25096 | -69.78652 | 5041 ft | 285 kts | 87° |
| 2026-05-08 00:49 | 32.25186 | -69.76311 | 5041 ft | 285 kts | 87° |
| 2026-05-08 00:50 | 32.25277 | -69.73999 | 5038 ft | 286 kts | 87° |
| 2026-05-08 00:50 | 32.25372 | -69.71623 | 5037 ft | 286 kts | 87° |
| 2026-05-08 00:50 | 32.25465 | -69.69281 | 5038 ft | 286 kts | 87° |
| 2026-05-08 00:50 | 32.25557 | -69.66966 | 5039 ft | 286 kts | 87° |
| 2026-05-08 00:51 | 32.25650 | -69.64621 | 5041 ft | 286 kts | 86° |
| 2026-05-08 00:51 | 32.25742 | -69.62281 | 5041 ft | 285 kts | 87° |
| 2026-05-08 00:51 | 32.25834 | -69.59941 | 5048 ft | 285 kts | 87° |
| 2026-05-08 00:51 | 32.25934 | -69.57594 | 5047 ft | 286 kts | 87° |
| 2026-05-08 00:52 | 32.26040 | -69.55249 | 5044 ft | 286 kts | 87° |
| 2026-05-08 00:52 | 32.26147 | -69.52907 | 5044 ft | 286 kts | 86° |
| 2026-05-08 00:52 | 32.26257 | -69.50563 | 5044 ft | 286 kts | 87° |
| 2026-05-08 00:52 | 32.26376 | -69.48218 | 5044 ft | 285 kts | 86° |
| 2026-05-08 00:53 | 32.26496 | -69.45882 | 5044 ft | 285 kts | 87° |
| 2026-05-08 00:53 | 32.26621 | -69.43541 | 5044 ft | 286 kts | 87° |
| 2026-05-08 00:53 | 32.26748 | -69.41203 | 5044 ft | 285 kts | 86° |
| 2026-05-08 00:53 | 32.26874 | -69.38867 | 5042 ft | 284 kts | 86° |
| 2026-05-08 00:54 | 32.26998 | -69.36535 | 5046 ft | 285 kts | 86° |
| 2026-05-08 00:54 | 32.27123 | -69.34201 | 5047 ft | 285 kts | 87° |
| 2026-05-08 00:54 | 32.27249 | -69.31865 | 5047 ft | 285 kts | 86° |
| 2026-05-08 00:54 | 32.27377 | -69.29529 | 5045 ft | 285 kts | 86° |
| 2026-05-08 00:55 | 32.27506 | -69.27194 | 5047 ft | 285 kts | 86° |
| 2026-05-08 00:55 | 32.27633 | -69.24856 | 5050 ft | 285 kts | 86° |
| 2026-05-08 00:55 | 32.27759 | -69.22534 | 5049 ft | 285 kts | 86° |
| 2026-05-08 00:55 | 32.27887 | -69.20180 | 5050 ft | 285 kts | 86° |
| 2026-05-08 00:56 | 32.28017 | -69.17842 | 5047 ft | 285 kts | 86° |
| 2026-05-08 00:56 | 32.28148 | -69.15508 | 5047 ft | 284 kts | 86° |
| 2026-05-08 00:56 | 32.28279 | -69.13179 | 5047 ft | 284 kts | 87° |
| 2026-05-08 00:56 | 32.28416 | -69.10846 | 5049 ft | 284 kts | 86° |
| 2026-05-08 00:57 | 32.28552 | -69.08517 | 5047 ft | 284 kts | 86° |
| 2026-05-08 00:57 | 32.28688 | -69.06190 | 5048 ft | 284 kts | 86° |
| 2026-05-08 00:57 | 32.28824 | -69.03869 | 5049 ft | 284 kts | 86° |
| 2026-05-08 00:57 | 32.28959 | -69.01541 | 5050 ft | 284 kts | 86° |
| 2026-05-08 00:58 | 32.29094 | -68.99249 | 5050 ft | 284 kts | 86° |
| 2026-05-08 00:58 | 32.29297 | -68.96898 | 5048 ft | 284 kts | 83° |
| 2026-05-08 00:58 | 32.29591 | -68.94592 | 5048 ft | 284 kts | 81° |
| 2026-05-08 00:58 | 32.29893 | -68.92318 | 5049 ft | 284 kts | 82° |
| 2026-05-08 00:59 | 32.30190 | -68.90012 | 5045 ft | 284 kts | 82° |
| 2026-05-08 00:59 | 32.30468 | -68.87702 | 5048 ft | 284 kts | 82° |
| 2026-05-08 00:59 | 32.30736 | -68.85392 | 5046 ft | 283 kts | 83° |
| 2026-05-08 00:59 | 32.30983 | -68.83079 | 5045 ft | 284 kts | 83° |
| 2026-05-08 01:00 | 32.31223 | -68.80762 | 5046 ft | 284 kts | 83° |
| 2026-05-08 01:00 | 32.31462 | -68.78450 | 5045 ft | 283 kts | 83° |
| 2026-05-08 01:00 | 32.31686 | -68.76139 | 5044 ft | 283 kts | 84° |
| 2026-05-08 01:00 | 32.31894 | -68.73821 | 5045 ft | 283 kts | 84° |
| 2026-05-08 01:01 | 32.32100 | -68.71506 | 5048 ft | 283 kts | 84° |
| 2026-05-08 01:01 | 32.32306 | -68.69189 | 5048 ft | 284 kts | 84° |
| 2026-05-08 01:01 | 32.32515 | -68.66870 | 5048 ft | 283 kts | 84° |
| 2026-05-08 01:01 | 32.32722 | -68.64556 | 5043 ft | 283 kts | 84° |
| 2026-05-08 01:02 | 32.32927 | -68.62239 | 5044 ft | 283 kts | 84° |
| 2026-05-08 01:02 | 32.33136 | -68.59917 | 5038 ft | 283 kts | 84° |
| 2026-05-08 01:02 | 32.33344 | -68.57602 | 5047 ft | 283 kts | 84° |
| 2026-05-08 01:02 | 32.33553 | -68.55289 | 5040 ft | 283 kts | 84° |
| 2026-05-08 01:03 | 32.33767 | -68.52975 | 5052 ft | 283 kts | 84° |
| 2026-05-08 01:03 | 32.33980 | -68.50658 | 5052 ft | 283 kts | 84° |
| 2026-05-08 01:03 | 32.34188 | -68.48346 | 5047 ft | 283 kts | 84° |
| 2026-05-08 01:03 | 32.34352 | -68.46029 | 5052 ft | 282 kts | 85° |
| 2026-05-08 01:04 | 32.34637 | -68.43736 | 5049 ft | 281 kts | 82° |
| 2026-05-08 01:04 | 32.34841 | -68.41437 | 5048 ft | 281 kts | 85° |
| 2026-05-08 01:04 | 32.35004 | -68.39129 | 5048 ft | 282 kts | 86° |
| 2026-05-08 01:04 | 32.35171 | -68.36845 | 5048 ft | 282 kts | 85° |
| 2026-05-08 01:05 | 32.35343 | -68.34536 | 5048 ft | 282 kts | 86° |
| 2026-05-08 01:05 | 32.35473 | -68.32214 | 5048 ft | 283 kts | 87° |
| 2026-05-08 01:05 | 32.35582 | -68.29894 | 5039 ft | 283 kts | 87° |
| 2026-05-08 01:05 | 32.35689 | -68.27573 | 5047 ft | 282 kts | 88° |
| 2026-05-08 01:06 | 32.35739 | -68.25252 | 5047 ft | 282 kts | 90° |
| 2026-05-08 01:06 | 32.35755 | -68.22932 | 5047 ft | 282 kts | 90° |
| 2026-05-08 01:06 | 32.35790 | -68.20612 | 5043 ft | 282 kts | 89° |
| 2026-05-08 01:06 | 32.35831 | -68.18288 | 5043 ft | 282 kts | 89° |
| 2026-05-08 01:07 | 32.35863 | -68.15972 | 5049 ft | 282 kts | 89° |
| 2026-05-08 01:07 | 32.35884 | -68.13655 | 5048 ft | 281 kts | 89° |
| 2026-05-08 01:07 | 32.35908 | -68.11343 | 5048 ft | 281 kts | 89° |
| 2026-05-08 01:07 | 32.35930 | -68.09029 | 5048 ft | 281 kts | 89° |
| 2026-05-08 01:08 | 32.35951 | -68.06716 | 5045 ft | 281 kts | 89° |
| 2026-05-08 01:08 | 32.35974 | -68.04403 | 5046 ft | 281 kts | 89° |
| 2026-05-08 01:08 | 32.35997 | -68.02093 | 5045 ft | 281 kts | 89° |
| 2026-05-08 01:08 | 32.36020 | -67.99782 | 5046 ft | 281 kts | 89° |
| 2026-05-08 01:09 | 32.36044 | -67.97468 | 5047 ft | 281 kts | 89° |
| 2026-05-08 01:09 | 32.36068 | -67.95158 | 5047 ft | 281 kts | 89° |
| 2026-05-08 01:09 | 32.36092 | -67.92848 | 5046 ft | 281 kts | 89° |
| 2026-05-08 01:09 | 32.36117 | -67.90534 | 5046 ft | 281 kts | 89° |
| 2026-05-08 01:10 | 32.36141 | -67.88221 | 5046 ft | 281 kts | 89° |
| 2026-05-08 01:10 | 32.36166 | -67.85910 | 5046 ft | 281 kts | 89° |
| 2026-05-08 01:10 | 32.36190 | -67.83598 | 5046 ft | 281 kts | 89° |
| 2026-05-08 01:10 | 32.36215 | -67.81287 | 5046 ft | 281 kts | 89° |
| 2026-05-08 01:11 | 32.36241 | -67.78973 | 5049 ft | 281 kts | 89° |
| 2026-05-08 01:11 | 32.36267 | -67.76658 | 5049 ft | 281 kts | 89° |
| 2026-05-08 01:11 | 32.36283 | -67.75131 | 5049 ft | 281 kts | 89° |
| 2026-05-08 01:11 | 32.36317 | -67.72035 | 5049 ft | 281 kts | 89° |
| 2026-05-08 01:12 | 32.36334 | -67.70500 | 5049 ft | 281 kts | 89° |
| 2026-05-08 01:12 | 32.36368 | -67.67438 | 5046 ft | 281 kts | 89° |
| 2026-05-08 01:12 | 32.36386 | -67.65877 | 5046 ft | 281 kts | 89° |
| 2026-05-08 01:12 | 32.36419 | -67.62817 | 5048 ft | 281 kts | 89° |
| 2026-05-08 01:13 | 32.36445 | -67.60506 | 5048 ft | 281 kts | 89° |
| 2026-05-08 01:13 | 32.36465 | -67.58942 | 5048 ft | 281 kts | 89° |
| 2026-05-08 01:13 | 32.36494 | -67.56628 | 5047 ft | 281 kts | 89° |
| 2026-05-08 01:13 | 32.36520 | -67.54315 | 5046 ft | 281 kts | 89° |
| 2026-05-08 01:14 | 32.36548 | -67.52003 | 5045 ft | 281 kts | 89° |
| 2026-05-08 01:14 | 32.36575 | -67.49697 | 5037 ft | 281 kts | 89° |
| 2026-05-08 01:14 | 32.36599 | -67.47387 | 5045 ft | 281 kts | 89° |
| 2026-05-08 01:14 | 32.36625 | -67.45076 | 5044 ft | 281 kts | 89° |
| 2026-05-08 01:15 | 32.36651 | -67.42800 | 5046 ft | 281 kts | 89° |
| 2026-05-08 01:15 | 32.36676 | -67.40492 | 5046 ft | 281 kts | 89° |
| 2026-05-08 01:15 | 32.36706 | -67.38184 | 5047 ft | 281 kts | 89° |
| 2026-05-08 01:15 | 32.36738 | -67.35876 | 5049 ft | 281 kts | 89° |
| 2026-05-08 01:16 | 32.36764 | -67.33566 | 5049 ft | 281 kts | 89° |
| 2026-05-08 01:16 | 32.36792 | -67.31253 | 5050 ft | 281 kts | 89° |
| 2026-05-08 01:16 | 32.36821 | -67.28941 | 5049 ft | 281 kts | 89° |
| 2026-05-08 01:16 | 32.36848 | -67.26624 | 5049 ft | 282 kts | 89° |
| 2026-05-08 01:17 | 32.36876 | -67.24305 | 5049 ft | 282 kts | 89° |
| 2026-05-08 01:17 | 32.36905 | -67.21992 | 5048 ft | 282 kts | 89° |
| 2026-05-08 01:17 | 32.36934 | -67.19676 | 5048 ft | 282 kts | 89° |
| 2026-05-08 01:17 | 32.36964 | -67.17359 | 5049 ft | 282 kts | 89° |
| 2026-05-08 01:18 | 32.36995 | -67.15040 | 5049 ft | 282 kts | 89° |
| 2026-05-08 01:18 | 32.37026 | -67.12722 | 5051 ft | 282 kts | 89° |
| 2026-05-08 01:18 | 32.37059 | -67.10395 | 5048 ft | 282 kts | 89° |
| 2026-05-08 01:18 | 32.37093 | -67.08073 | 5048 ft | 282 kts | 89° |
| 2026-05-08 01:19 | 32.37127 | -67.05750 | 5048 ft | 282 kts | 89° |
| 2026-05-08 01:19 | 32.37161 | -67.03426 | 5049 ft | 282 kts | 89° |
| 2026-05-08 01:19 | 32.37193 | -67.01106 | 5049 ft | 282 kts | 89° |
| 2026-05-08 01:19 | 32.37225 | -66.98816 | 5049 ft | 282 kts | 89° |
| 2026-05-08 01:20 | 32.37259 | -66.96493 | 5049 ft | 282 kts | 89° |
| 2026-05-08 01:20 | 32.37292 | -66.94173 | 5049 ft | 282 kts | 89° |
| 2026-05-08 01:20 | 32.37326 | -66.91851 | 5049 ft | 282 kts | 89° |
| 2026-05-08 01:20 | 32.37360 | -66.89531 | 5049 ft | 282 kts | 89° |
| 2026-05-08 01:21 | 32.37394 | -66.87208 | 5048 ft | 283 kts | 89° |
| 2026-05-08 01:21 | 32.37426 | -66.84882 | 5048 ft | 283 kts | 89° |
| 2026-05-08 01:21 | 32.37457 | -66.82552 | 5049 ft | 283 kts | 89° |
| 2026-05-08 01:21 | 32.37488 | -66.80229 | 5049 ft | 283 kts | 89° |
| 2026-05-08 01:22 | 32.37518 | -66.77898 | 5049 ft | 283 kts | 89° |
| 2026-05-08 01:22 | 32.37549 | -66.75564 | 5052 ft | 283 kts | 89° |
| 2026-05-08 01:22 | 32.37582 | -66.73237 | 5051 ft | 283 kts | 89° |
| 2026-05-08 01:22 | 32.37614 | -66.70906 | 5051 ft | 283 kts | 89° |
| 2026-05-08 01:23 | 32.37646 | -66.68579 | 5052 ft | 283 kts | 89° |
| 2026-05-08 01:23 | 32.37678 | -66.66252 | 5049 ft | 283 kts | 89° |
| 2026-05-08 01:23 | 32.37710 | -66.63923 | 5048 ft | 283 kts | 89° |
| 2026-05-08 01:23 | 32.37743 | -66.61593 | 5046 ft | 283 kts | 89° |
| 2026-05-08 01:24 | 32.37775 | -66.59265 | 5046 ft | 283 kts | 89° |
| 2026-05-08 01:24 | 32.37807 | -66.56937 | 5047 ft | 283 kts | 89° |
| 2026-05-08 01:24 | 32.37836 | -66.54610 | 5047 ft | 283 kts | 89° |
| 2026-05-08 01:24 | 32.37860 | -66.52283 | 5046 ft | 282 kts | 89° |
| 2026-05-08 01:25 | 32.37882 | -66.49963 | 5049 ft | 282 kts | 89° |
| 2026-05-08 01:25 | 32.37906 | -66.47647 | 5052 ft | 282 kts | 89° |
| 2026-05-08 01:25 | 32.37928 | -66.45329 | 5052 ft | 282 kts | 89° |
| 2026-05-08 01:25 | 32.37949 | -66.43012 | 5053 ft | 282 kts | 89° |
| 2026-05-08 01:26 | 32.37972 | -66.40691 | 5053 ft | 282 kts | 89° |
| 2026-05-08 01:26 | 32.37995 | -66.38374 | 5052 ft | 282 kts | 89° |
| 2026-05-08 01:26 | 32.38018 | -66.36055 | 5049 ft | 282 kts | 89° |
| 2026-05-08 01:26 | 32.38041 | -66.33739 | 5050 ft | 282 kts | 89° |
| 2026-05-08 01:27 | 32.38064 | -66.31424 | 5049 ft | 282 kts | 89° |
| 2026-05-08 01:27 | 32.38086 | -66.29107 | 5047 ft | 282 kts | 89° |
| 2026-05-08 01:27 | 32.38110 | -66.26817 | 5047 ft | 282 kts | 89° |
| 2026-05-08 01:27 | 32.38135 | -66.24502 | 5047 ft | 282 kts | 89° |
| 2026-05-08 01:28 | 32.38159 | -66.22184 | 5048 ft | 282 kts | 89° |
| 2026-05-08 01:28 | 32.38186 | -66.19859 | 5044 ft | 282 kts | 89° |
| 2026-05-08 01:28 | 32.38212 | -66.17535 | 5043 ft | 282 kts | 89° |
| 2026-05-08 01:28 | 32.38240 | -66.15213 | 5043 ft | 282 kts | 89° |
| 2026-05-08 01:29 | 32.38269 | -66.12889 | 5044 ft | 282 kts | 89° |
| 2026-05-08 01:29 | 32.38298 | -66.10564 | 5048 ft | 283 kts | 89° |
| 2026-05-08 01:29 | 32.38328 | -66.08241 | 5047 ft | 283 kts | 89° |
| 2026-05-08 01:29 | 32.38358 | -66.05913 | 5047 ft | 283 kts | 89° |
| 2026-05-08 01:30 | 32.38389 | -66.03590 | 5047 ft | 283 kts | 89° |
| 2026-05-08 01:30 | 32.38421 | -66.01262 | 5047 ft | 283 kts | 89° |
| 2026-05-08 01:30 | 32.38452 | -65.98936 | 5047 ft | 283 kts | 89° |
| 2026-05-08 01:30 | 32.38483 | -65.96610 | 5047 ft | 283 kts | 89° |
| 2026-05-08 01:31 | 32.38515 | -65.94284 | 5047 ft | 283 kts | 89° |
| 2026-05-08 01:31 | 32.38549 | -65.91959 | 5050 ft | 283 kts | 89° |
| 2026-05-08 01:31 | 32.38584 | -65.89632 | 5050 ft | 283 kts | 89° |
| 2026-05-08 01:31 | 32.38620 | -65.87305 | 5051 ft | 283 kts | 89° |
| 2026-05-08 01:32 | 32.38659 | -65.84980 | 5051 ft | 283 kts | 89° |
| 2026-05-08 01:32 | 32.38699 | -65.82654 | 5047 ft | 283 kts | 89° |
| 2026-05-08 01:32 | 32.38739 | -65.80328 | 5046 ft | 283 kts | 89° |
| 2026-05-08 01:32 | 32.38779 | -65.78004 | 5047 ft | 282 kts | 89° |
| 2026-05-08 01:33 | 32.38817 | -65.75680 | 5048 ft | 282 kts | 89° |
| 2026-05-08 01:33 | 32.38857 | -65.73355 | 5048 ft | 283 kts | 89° |
| 2026-05-08 01:33 | 32.38896 | -65.71031 | 5048 ft | 283 kts | 89° |
| 2026-05-08 01:33 | 32.38936 | -65.68706 | 5047 ft | 282 kts | 89° |
| 2026-05-08 01:34 | 32.38975 | -65.66382 | 5048 ft | 283 kts | 89° |
| 2026-05-08 01:34 | 32.39015 | -65.64060 | 5048 ft | 283 kts | 89° |
| 2026-05-08 01:34 | 32.39055 | -65.61732 | 5048 ft | 282 kts | 89° |
| 2026-05-08 01:34 | 32.39095 | -65.59408 | 5047 ft | 283 kts | 89° |
| 2026-05-08 01:35 | 32.39132 | -65.57084 | 5048 ft | 283 kts | 89° |
| 2026-05-08 01:35 | 32.39168 | -65.54756 | 5049 ft | 283 kts | 89° |
| 2026-05-08 01:35 | 32.39203 | -65.52432 | 5048 ft | 283 kts | 89° |
| 2026-05-08 01:35 | 32.39238 | -65.50106 | 5048 ft | 283 kts | 89° |
| 2026-05-08 01:36 | 32.39274 | -65.47777 | 5048 ft | 283 kts | 89° |
| 2026-05-08 01:36 | 32.39313 | -65.45447 | 5048 ft | 283 kts | 89° |
| 2026-05-08 01:36 | 32.39351 | -65.43122 | 5048 ft | 283 kts | 88° |
| 2026-05-08 01:36 | 32.39387 | -65.40795 | 5049 ft | 283 kts | 89° |
| 2026-05-08 01:37 | 32.39423 | -65.38469 | 5046 ft | 283 kts | 89° |
| 2026-05-08 01:37 | 32.39462 | -65.36142 | 5045 ft | 283 kts | 89° |
| 2026-05-08 01:37 | 32.39499 | -65.33815 | 5039 ft | 283 kts | 89° |
| 2026-05-08 01:37 | 32.39534 | -65.31519 | 5040 ft | 283 kts | 89° |
| 2026-05-08 01:38 | 32.39572 | -65.29190 | 5040 ft | 283 kts | 88° |
| 2026-05-08 01:38 | 32.39603 | -65.26857 | 5040 ft | 283 kts | 88° |
| 2026-05-08 01:38 | 32.39611 | -65.24532 | 5041 ft | 283 kts | 90° |
| 2026-05-08 01:38 | 32.39539 | -65.22204 | 5042 ft | 283 kts | 92° |
| 2026-05-08 01:39 | 32.39425 | -65.19876 | 5014 ft | 284 kts | 92° |
| 2026-05-08 01:39 | 32.39300 | -65.17530 | 4896 ft | 288 kts | 94° |
| 2026-05-08 01:39 | 32.39106 | -65.15166 | 4770 ft | 290 kts | 95° |
| 2026-05-08 01:39 | 32.38815 | -65.12817 | 4644 ft | 290 kts | 99° |
| 2026-05-08 01:40 | 32.38428 | -65.10465 | 4519 ft | 290 kts | 100° |
| 2026-05-08 01:40 | 32.38033 | -65.08157 | 4385 ft | 283 kts | 100° |
| 2026-05-08 01:40 | 32.37644 | -65.05893 | 4261 ft | 279 kts | 101° |
| 2026-05-08 01:40 | 32.37255 | -65.03652 | 4090 ft | 277 kts | 101° |
| 2026-05-08 01:41 | 32.36864 | -65.01428 | 3916 ft | 276 kts | 101° |
| 2026-05-08 01:41 | 32.36524 | -64.99205 | 3744 ft | 274 kts | 97° |
| 2026-05-08 01:41 | 32.36342 | -64.96966 | 3569 ft | 273 kts | 91° |
| 2026-05-08 01:41 | 32.36267 | -64.94728 | 3397 ft | 272 kts | 90° |
| 2026-05-08 01:42 | 32.36216 | -64.92499 | 3221 ft | 271 kts | 89° |
| 2026-05-08 01:42 | 32.36266 | -64.90279 | 2989 ft | 266 kts | 85° |
| 2026-05-08 01:42 | 32.36356 | -64.88137 | 2739 ft | 257 kts | 85° |
| 2026-05-08 01:42 | 32.36432 | -64.86115 | 2480 ft | 229 kts | 85° |
| 2026-05-08 01:43 | 32.36489 | -64.84346 | 2209 ft | 202 kts | 86° |
| 2026-05-08 01:43 | 32.36541 | -64.82698 | 1963 ft | 202 kts | 85° |
| 2026-05-08 01:43 | 32.36584 | -64.81110 | 1697 ft | 185 kts | 86° |
| 2026-05-08 01:43 | 32.36623 | -64.79584 | 1442 ft | 184 kts | 85° |
| 2026-05-08 01:44 | 32.36663 | -64.78085 | 1184 ft | 181 kts | 85° |
| 2026-05-08 01:44 | 32.36710 | -64.76607 | 933 ft | 179 kts | 85° |
| 2026-05-08 01:44 | 32.36783 | -64.75149 | 682 ft | 176 kts | 81° |
| 2026-05-08 01:44 | 32.36944 | -64.73736 | 546 ft | 167 kts | 79° |
| 2026-05-08 01:45 | 32.37082 | -64.72420 | 362 ft | 150 kts | 86° |
| 2026-05-08 01:45 | 32.36915 | -64.71213 | 83 ft | 146 kts | 98° |
| 2026-05-08 01:45 | 32.36776 | -64.70072 | 63 ft | 136 kts | 102° |
| 2026-05-08 01:45 | 32.36605 | -64.69022 | 2 ft | 102 kts | 103° |
| 2026-05-08 01:46 | 32.36576 | -64.68660 | 4 ft | 23 kts | 21° |
| 2026-05-08 01:46 | 32.36664 | -64.68654 | 3 ft | 6 kts | 46° |
| 2026-05-08 01:46 | 32.36664 | -64.68589 | 3 ft | 12 kts | 102° |
| 2026-05-08 01:46 | 32.36633 | -64.68467 | 3 ft | 19 kts | 111° |
| 2026-05-08 01:47 | 32.36575 | -64.68324 | 4 ft | 19 kts | 115° |
| 2026-05-08 01:47 | 32.36589 | -64.68186 | 3 ft | 18 kts | 81° |
| 2026-05-08 01:47 | 32.36584 | -64.68082 | 3 ft | 8 kts | 101° |
| 2026-05-08 01:48 | 32.36532 | -64.67834 | 3 ft | 23 kts | 103° |
| 2026-05-08 01:48 | 32.36503 | -64.67617 | 3 ft | 30 kts | 99° |
| 2026-05-08 01:48 | 32.36455 | -64.67357 | 3 ft | 36 kts | 102° |
| 2026-05-08 01:48 | 32.36418 | -64.67133 | 4 ft | 17 kts | 101° |
| 2026-05-08 01:49 | 32.36414 | -64.67011 | 4 ft | 12 kts | 36° |
| 2026-05-08 01:49 | 32.36456 | -64.66959 | 4 ft | 7 kts | 76° |
| 2026-05-08 01:49 | 32.36469 | -64.66922 | 4 ft | 2 kts | 55° |
| 2026-05-08 01:49 | 32.36488 | -64.66919 | 4 ft | 5 kts | 358° |
| 2026-05-08 01:50 | 32.36498 | -64.66920 | 4 ft | 0 kts | 355° |